Observation data for Hobbs on 01/19/2019      Previous  Date  Next       Current Mesonet Observations  Soil Data  Daily Summary Page  Observations in Plain Language
KHO1 190600Z 35026G32KT 04/M01 A3013 RMK A01 T00421006  RH  071%=      5-min Rain = 0
KHO1 190601Z 36024G30KT 04/M01 A3013 RMK A01 T00421006  RH  071%=      5-min Rain = 0
KHO1 190602Z 35026G32KT 04/M01 A3013 RMK A01 T00421006  RH  071%=      5-min Rain = 0
KHO1 190603Z 35025G30KT 04/M01 A3013 RMK A01 T00421006  RH  071%=      5-min Rain = 0
KHO1 190604Z 35025G30KT 04/M01 A3013 RMK A01 T00411006  RH  071%=      5-min Rain = 0
KHO1 190605Z 35024G30KT 04/M01 A3013 RMK A01 T00411006  RH  071%=      5-min Rain = 0
KHO1 190606Z 35025KT 04/M01 A3013 RMK A01 T00411006  RH  072%=      5-min Rain = 0
KHO1 190607Z 35020KT 04/M01 A3014 RMK A01 T00401006  RH  072%=      5-min Rain = 0
KHO1 190608Z 35022G28KT 04/M01 A3014 RMK A01 T00401006  RH  072%=      5-min Rain = 0
KHO1 190609Z 35024KT 04/M01 A3013 RMK A01 T00401006  RH  072%=      5-min Rain = 0
KHO1 190610Z 35019KT 04/M01 A3014 RMK A01 T00391006  RH  072%=      5-min Rain = 0
KHO1 190611Z 35021G26KT 04/M01 A3013 RMK A01 T00391006  RH  072%=      5-min Rain = 0
KHO1 190612Z 35020G25KT 04/M01 A3013 RMK A01 T00391006  RH  072%=      5-min Rain = 0
KHO1 190613Z 35016KT 04/M01 A3014 RMK A01 T00391006  RH  072%=      5-min Rain = 0
KHO1 190614Z 35018KT 04/M01 A3014 RMK A01 T00381007  RH  073%=      5-min Rain = 0
KHO1 190615Z 35016KT 04/M01 A3014 RMK A01 T00381006  RH  073%=      5-min Rain = 0
KHO1 190616Z 34015KT 04/M01 A3014 RMK A01 T00371007  RH  073%=      5-min Rain = 0
KHO1 190617Z 34019G25KT 04/M01 A3014 RMK A01 T00371007  RH  073%=      5-min Rain = 0
KHO1 190618Z 34018G23KT 04/M01 A3014 RMK A01 T00371007  RH  073%=      5-min Rain = 0
KHO1 190619Z 34018KT 04/M01 A3014 RMK A01 T00371007  RH  073%=      5-min Rain = 0
KHO1 190620Z 34018KT 04/M01 A3014 RMK A01 T00371008  RH  073%=      5-min Rain = 0
KHO1 190621Z 34021G26KT 04/M01 A3014 RMK A01 T00361008  RH  073%=      5-min Rain = 0
KHO1 190622Z 34019G25KT 04/M01 A3014 RMK A01 T00371008  RH  073%=      5-min Rain = 0
KHO1 190623Z 34020KT 04/M01 A3014 RMK A01 T00361008  RH  073%=      5-min Rain = 0
KHO1 190624Z 34022KT 04/M01 A3014 RMK A01 T00361008  RH  073%=      5-min Rain = 0
KHO1 190625Z 34019G25KT 04/M01 A3014 RMK A01 T00361008  RH  073%=      5-min Rain = 0
KHO1 190626Z 35021KT 04/M01 A3014 RMK A01 T00361008  RH  073%=      5-min Rain = 0
KHO1 190627Z 34020KT 04/M01 A3014 RMK A01 T00361008  RH  073%=      5-min Rain = 0
KHO1 190628Z 34019KT 04/M01 A3014 RMK A01 T00361008  RH  073%=      5-min Rain = 0
KHO1 190629Z 34024KT 04/M01 A3014 RMK A01 T00361008  RH  073%=      5-min Rain = 0
KHO1 190630Z 34020KT 04/M01 A3014 RMK A01 T00361008  RH  073%=      5-min Rain = 0
KHO1 190631Z 34020G25KT 04/M01 A3014 RMK A01 T00361008  RH  073%=      5-min Rain = 0
KHO1 190632Z 34020KT 04/M01 A3014 RMK A01 T00351008  RH  073%=      5-min Rain = 0
KHO1 190633Z 34020KT 04/M01 A3014 RMK A01 T00351009  RH  073%=      5-min Rain = 0
KHO1 190634Z 34021KT 04/M01 A3014 RMK A01 T00351009  RH  073%=      5-min Rain = 0
KHO1 190635Z 34024KT 04/M01 A3014 RMK A01 T00351009  RH  073%=      5-min Rain = 0
KHO1 190636Z 34024KT 04/M01 A3014 RMK A01 T00361009  RH  072%=      5-min Rain = 0
KHO1 190637Z 34019G24KT 04/M01 A3014 RMK A01 T00361009  RH  072%=      5-min Rain = 0
KHO1 190638Z 34025G31KT 04/M01 A3014 RMK A01 T00361009  RH  073%=      5-min Rain = 0
KHO1 190639Z 34023G31KT 04/M01 A3014 RMK A01 T00361009  RH  072%=      5-min Rain = 0
KHO1 190640Z 35024G29KT 04/M01 A3014 RMK A01 T00361010  RH  072%=      5-min Rain = 0
KHO1 190641Z 34023G30KT 04/M01 A3014 RMK A01 T00361010  RH  072%=      5-min Rain = 0
KHO1 190642Z 35023G29KT 04/M01 A3014 RMK A01 T00361011  RH  071%=      5-min Rain = 0
KHO1 190643Z 34024KT 04/M01 A3014 RMK A01 T00361011  RH  071%=      5-min Rain = 0
KHO1 190644Z 34025G30KT 04/M01 A3014 RMK A01 T00361012  RH  071%=      5-min Rain = 0
KHO1 190645Z 34022G29KT 04/M01 A3014 RMK A01 T00361011  RH  071%=      5-min Rain = 0
KHO1 190646Z 34023KT 04/M01 A3014 RMK A01 T00361011  RH  071%=      5-min Rain = 0
KHO1 190647Z 34022G28KT 04/M01 A3014 RMK A01 T00361011  RH  071%=      5-min Rain = 0
KHO1 190648Z 34021KT 04/M01 A3014 RMK A01 T00361011  RH  071%=      5-min Rain = 0
KHO1 190649Z 34022KT 04/M01 A3015 RMK A01 T00351011  RH  071%=      5-min Rain = 0
KHO1 190650Z 34022G27KT 04/M01 A3015 RMK A01 T00351011  RH  071%=      5-min Rain = 0
KHO1 190651Z 34023G28KT 04/M01 A3014 RMK A01 T00351012  RH  071%=      5-min Rain = 0
KHO1 190652Z 34023KT 04/M01 A3014 RMK A01 T00351012  RH  071%=      5-min Rain = 0
KHO1 190653Z 34022G27KT 04/M01 A3015 RMK A01 T00351012  RH  071%=      5-min Rain = 0
KHO1 190654Z 34022KT 04/M01 A3015 RMK A01 T00351012  RH  071%=      5-min Rain = 0
KHO1 190655Z 35021G28KT 04/M01 A3015 RMK A01 T00351012  RH  071%=      5-min Rain = 0
KHO1 190656Z 35024G29KT 04/M01 A3014 RMK A01 T00351013  RH  070%=      5-min Rain = 0
KHO1 190657Z 35023KT 04/M02 A3014 RMK A01 T00361015  RH  070%=      5-min Rain = 0
KHO1 190658Z 36024G30KT 04/M02 A3014 RMK A01 T00361015  RH  069%=      5-min Rain = 0
KHO1 190659Z 35021G28KT 04/M02 A3015 RMK A01 T00361015  RH  069%=      5-min Rain = 0
KHO1 190700Z 36025G31KT 04/M01 A3014 RMK A01 T00361014  RH  070%=      5-min Rain = 0
KHO1 190701Z 35025KT 04/M01 A3014 RMK A01 T00361014  RH  070%=      5-min Rain = 0
KHO1 190702Z 36021G27KT 04/M01 A3015 RMK A01 T00361014  RH  070%=      5-min Rain = 0
KHO1 190703Z 36018KT 04/M01 A3015 RMK A01 T00351014  RH  070%=      5-min Rain = 0
KHO1 190704Z 35019KT 04/M01 A3015 RMK A01 T00351013  RH  071%=      5-min Rain = 0
KHO1 190705Z 36019G24KT 03/M01 A3015 RMK A01 T00341013  RH  071%=      5-min Rain = 0
KHO1 190706Z 36019KT 03/M01 A3015 RMK A01 T00341012  RH  072%=      5-min Rain = 0
KHO1 190707Z 36015KT 03/M01 A3016 RMK A01 T00341012  RH  072%=      5-min Rain = 0
KHO1 190708Z 35014KT 03/M01 A3016 RMK A01 T00331012  RH  072%=      5-min Rain = 0
KHO1 190709Z 35016KT 03/M01 A3016 RMK A01 T00331012  RH  073%=      5-min Rain = 0
KHO1 190710Z 35016KT 03/M01 A3016 RMK A01 T00321011  RH  073%=      5-min Rain = 0
KHO1 190711Z 35015KT 03/M01 A3016 RMK A01 T00321011  RH  074%=      5-min Rain = 0
KHO1 190712Z 35018G23KT 03/M01 A3016 RMK A01 T00321010  RH  074%=      5-min Rain = 0
KHO1 190713Z 34016KT 03/M01 A3016 RMK A01 T00311010  RH  074%=      5-min Rain = 0
KHO1 190714Z 35016KT 03/M01 A3016 RMK A01 T00311009  RH  075%=      5-min Rain = 0
KHO1 190715Z 34015KT 03/M01 A3016 RMK A01 T00311010  RH  075%=      5-min Rain = 0
KHO1 190716Z 34017G22KT 03/M01 A3016 RMK A01 T00301009  RH  075%=      5-min Rain = 0
KHO1 190717Z 34017G24KT 03/M01 A3016 RMK A01 T00301009  RH  076%=      5-min Rain = 0
KHO1 190718Z 34016KT 03/M01 A3016 RMK A01 T00301009  RH  076%=      5-min Rain = 0
KHO1 190719Z 34015G20KT 03/M01 A3017 RMK A01 T00291009  RH  076%=      5-min Rain = 0
KHO1 190720Z 34017KT 03/M01 A3017 RMK A01 T00291009  RH  076%=      5-min Rain = 0
KHO1 190721Z 34017G22KT 03/M01 A3017 RMK A01 T00291009  RH  077%=      5-min Rain = 0
KHO1 190722Z 34016G21KT 03/M01 A3017 RMK A01 T00281008  RH  077%=      5-min Rain = 0
KHO1 190723Z 34015KT 03/M01 A3017 RMK A01 T00281008  RH  077%=      5-min Rain = 0
KHO1 190724Z 34016KT 03/M01 A3017 RMK A01 T00281009  RH  077%=      5-min Rain = 0
KHO1 190725Z 34017G22KT 03/M01 A3017 RMK A01 T00271008  RH  077%=      5-min Rain = 0
KHO1 190726Z 34020KT 03/M01 A3017 RMK A01 T00271008  RH  078%=      5-min Rain = 0
KHO1 190727Z 34018KT 03/M01 A3017 RMK A01 T00271008  RH  078%=      5-min Rain = 0
KHO1 190728Z 34018KT 03/M01 A3017 RMK A01 T00271008  RH  078%=      5-min Rain = 0
KHO1 190729Z 34020KT 03/M01 A3017 RMK A01 T00261008  RH  078%=      5-min Rain = 0
KHO1 190730Z 34018KT 03/M01 A3017 RMK A01 T00261008  RH  078%=      5-min Rain = 0
KHO1 190731Z 34018KT 03/M01 A3017 RMK A01 T00261009  RH  078%=      5-min Rain = 0
KHO1 190732Z 34015KT 03/M01 A3017 RMK A01 T00261009  RH  078%=      5-min Rain = 0
KHO1 190733Z 34016KT 03/M01 A3017 RMK A01 T00251009  RH  078%=      5-min Rain = 0
KHO1 190734Z 34016KT 03/M01 A3017 RMK A01 T00251009  RH  078%=      5-min Rain = 0
KHO1 190735Z 34018KT 03/M01 A3017 RMK A01 T00251009  RH  078%=      5-min Rain = 0
KHO1 190736Z 34018KT 03/M01 A3017 RMK A01 T00251009  RH  078%=      5-min Rain = 0
KHO1 190737Z 34018G23KT 03/M01 A3017 RMK A01 T00251009  RH  078%=      5-min Rain = 0
KHO1 190738Z 34020KT 03/M01 A3017 RMK A01 T00251009  RH  078%=      5-min Rain = 0
KHO1 190739Z 34017G23KT 03/M01 A3017 RMK A01 T00251009  RH  078%=      5-min Rain = 0
KHO1 190740Z 34020KT 03/M01 A3017 RMK A01 T00251009  RH  078%=      5-min Rain = 0
KHO1 190741Z 34018KT 03/M01 A3017 RMK A01 T00251009  RH  078%=      5-min Rain = 0
KHO1 190742Z 34018KT 02/M01 A3017 RMK A01 T00241010  RH  078%=      5-min Rain = 0
KHO1 190743Z 35018KT 02/M01 A3017 RMK A01 T00241010  RH  078%=      5-min Rain = 0
KHO1 190744Z 34019KT 02/M01 A3017 RMK A01 T00241010  RH  078%=      5-min Rain = 0
KHO1 190745Z 34017KT 02/M01 A3017 RMK A01 T00241010  RH  078%=      5-min Rain = 0
KHO1 190746Z 34017KT 02/M01 A3017 RMK A01 T00241010  RH  078%=      5-min Rain = 0
KHO1 190747Z 35017KT 02/M01 A3018 RMK A01 T00241010  RH  078%=      5-min Rain = 0
KHO1 190748Z 34018KT 02/M01 A3018 RMK A01 T00241010  RH  078%=      5-min Rain = 0
KHO1 190749Z 34016KT 02/M01 A3018 RMK A01 T00241011  RH  078%=      5-min Rain = 0
KHO1 190750Z 34016KT 02/M01 A3018 RMK A01 T00241011  RH  078%=      5-min Rain = 0
KHO1 190751Z 34019KT 02/M01 A3018 RMK A01 T00241011  RH  078%=      5-min Rain = 0
KHO1 190752Z 34017KT 02/M01 A3018 RMK A01 T00241011  RH  078%=      5-min Rain = 0
KHO1 190753Z 34018KT 02/M01 A3018 RMK A01 T00231011  RH  078%=      5-min Rain = 0
KHO1 190754Z 34017KT 02/M01 A3018 RMK A01 T00231012  RH  078%=      5-min Rain = 0
KHO1 190755Z 34018KT 02/M01 A3018 RMK A01 T00231012  RH  078%=      5-min Rain = 0
KHO1 190756Z 34019KT 02/M01 A3018 RMK A01 T00231012  RH  078%=      5-min Rain = 0
KHO1 190757Z 34018KT 02/M01 A3018 RMK A01 T00231012  RH  077%=      5-min Rain = 0
KHO1 190758Z 34020KT 02/M01 A3018 RMK A01 T00231013  RH  077%=      5-min Rain = 0
KHO1 190759Z 34020KT 02/M01 A3019 RMK A01 T00231013  RH  077%=      5-min Rain = 0
KHO1 190800Z 34017KT 02/M01 A3019 RMK A01 T00231014  RH  077%=      5-min Rain = 0
KHO1 190801Z 34014KT 02/M01 A3019 RMK A01 T00231014  RH  076%=      5-min Rain = 0
KHO1 190802Z 35018G23KT 02/M02 A3019 RMK A01 T00221015  RH  076%=      5-min Rain = 0
KHO1 190803Z 34020KT 02/M02 A3019 RMK A01 T00231016  RH  075%=      5-min Rain = 0
KHO1 190804Z 34020G27KT 02/M02 A3019 RMK A01 T00231017  RH  075%=      5-min Rain = 0
KHO1 190805Z 34017G23KT 02/M02 A3019 RMK A01 T00231017  RH  075%=      5-min Rain = 0
KHO1 190806Z 34017KT 02/M02 A3019 RMK A01 T00231017  RH  074%=      5-min Rain = 0
KHO1 190807Z 35018KT 02/M02 A3019 RMK A01 T00231018  RH  074%=      5-min Rain = 0
KHO1 190808Z 34019KT 02/M02 A3019 RMK A01 T00231018  RH  074%=      5-min Rain = 0
KHO1 190809Z 34018KT 02/M02 A3019 RMK A01 T00231019  RH  074%=      5-min Rain = 0
KHO1 190810Z 34019KT 02/M02 A3019 RMK A01 T00231020  RH  073%=      5-min Rain = 0
KHO1 190811Z 34019KT 02/M02 A3019 RMK A01 T00231021  RH  073%=      5-min Rain = 0
KHO1 190812Z 34018KT 02/M02 A3019 RMK A01 T00231022  RH  072%=      5-min Rain = 0
KHO1 190813Z 35018KT 02/M02 A3019 RMK A01 T00231024  RH  071%=      5-min Rain = 0
KHO1 190814Z 35022G29KT 02/M03 A3019 RMK A01 T00241026  RH  069%=      5-min Rain = 0
KHO1 190815Z 35020G25KT 03/M03 A3019 RMK A01 T00251029  RH  067%=      5-min Rain = 0
KHO1 190816Z 35020G25KT 03/M03 A3019 RMK A01 T00261030  RH  066%=      5-min Rain = 0
KHO1 190817Z 35020KT 03/M03 A3019 RMK A01 T00271031  RH  066%=      5-min Rain = 0
KHO1 190818Z 35022G29KT 03/M03 A3019 RMK A01 T00271032  RH  065%=      5-min Rain = 0
KHO1 190819Z 36021KT 03/M03 A3019 RMK A01 T00281033  RH  065%=      5-min Rain = 0
KHO1 190820Z 35019KT 03/M03 A3019 RMK A01 T00281033  RH  064%=      5-min Rain = 0
KHO1 190821Z 35019KT 03/M03 A3019 RMK A01 T00281033  RH  064%=      5-min Rain = 0
KHO1 190822Z 36021KT 03/M03 A3019 RMK A01 T00281034  RH  064%=      5-min Rain = 0
KHO1 190823Z 36019KT 03/M03 A3019 RMK A01 T00281034  RH  064%=      5-min Rain = 0
KHO1 190824Z 35017KT 03/M03 A302 RMK A01 T00281034  RH  064%=      5-min Rain = 0
KHO1 190825Z 36016KT 03/M03 A302 RMK A01 T00271034  RH  064%=      5-min Rain = 0
KHO1 190826Z 36017KT 03/M03 A302 RMK A01 T00271034  RH  064%=      5-min Rain = 0
KHO1 190827Z 36020KT 03/M03 A3019 RMK A01 T00271034  RH  064%=      5-min Rain = 0
KHO1 190828Z 36016KT 03/M03 A302 RMK A01 T00271033  RH  065%=      5-min Rain = 0
KHO1 190829Z 36015G21KT 03/M03 A302 RMK A01 T00261033  RH  065%=      5-min Rain = 0
KHO1 190830Z 36020KT 03/M03 A302 RMK A01 T00261033  RH  065%=      5-min Rain = 0
KHO1 190831Z 36015KT 03/M03 A302 RMK A01 T00261033  RH  065%=      5-min Rain = 0
KHO1 190832Z 35016KT 03/M03 A302 RMK A01 T00261033  RH  065%=      5-min Rain = 0
KHO1 190833Z 35020G25KT 03/M03 A302 RMK A01 T00251033  RH  065%=      5-min Rain = 0
KHO1 190834Z 36018G27KT 03/M03 A302 RMK A01 T00261034  RH  065%=      5-min Rain = 0
KHO1 190835Z 35017KT 03/M03 A302 RMK A01 T00261033  RH  065%=      5-min Rain = 0
KHO1 190836Z 35020KT 03/M03 A302 RMK A01 T00261033  RH  065%=      5-min Rain = 0
KHO1 190837Z 00017G24KT 03/M03 A302 RMK A01 T00261034  RH  065%=      5-min Rain = 0
KHO1 190838Z 36018G24KT 03/M03 A302 RMK A01 T00261034  RH  065%=      5-min Rain = 0
KHO1 190839Z 35020KT 03/M03 A302 RMK A01 T00261034  RH  065%=      5-min Rain = 0
KHO1 190840Z 35018KT 03/M03 A302 RMK A01 T00261034  RH  065%=      5-min Rain = 0
KHO1 190841Z 36017KT 03/M03 A302 RMK A01 T00261034  RH  065%=      5-min Rain = 0
KHO1 190842Z 00017G23KT 03/M03 A302 RMK A01 T00261034  RH  064%=      5-min Rain = 0
KHO1 190843Z 36017G22KT 03/M03 A302 RMK A01 T00261034  RH  065%=      5-min Rain = 0
KHO1 190844Z 36016G24KT 03/M04 A302 RMK A01 T00261035  RH  065%=      5-min Rain = 0
KHO1 190845Z 00013G20KT 03/M04 A302 RMK A01 T00251035  RH  065%=      5-min Rain = 0
KHO1 190846Z 00017G22KT 03/M04 A302 RMK A01 T00251035  RH  065%=      5-min Rain = 0
KHO1 190847Z 01016KT 03/M04 A302 RMK A01 T00251035  RH  065%=      5-min Rain = 0
KHO1 190848Z 01013KT 03/M04 A302 RMK A01 T00251035  RH  065%=      5-min Rain = 0
KHO1 190849Z 00014G20KT 02/M04 A302 RMK A01 T00241035  RH  065%=      5-min Rain = 0
KHO1 190850Z 00015KT 02/M04 A302 RMK A01 T00241035  RH  065%=      5-min Rain = 0
KHO1 190851Z 00016KT 02/M03 A302 RMK A01 T00241034  RH  065%=      5-min Rain = 0
KHO1 190852Z 35014G19KT 02/M03 A302 RMK A01 T00241034  RH  065%=      5-min Rain = 0
KHO1 190853Z 00014G20KT 02/M03 A3021 RMK A01 T00241034  RH  065%=      5-min Rain = 0
KHO1 190854Z 36017G22KT 02/M03 A3021 RMK A01 T00241034  RH  065%=      5-min Rain = 0
KHO1 190855Z 36015G21KT 02/M03 A3021 RMK A01 T00241034  RH  065%=      5-min Rain = 0
KHO1 190856Z 00014KT 02/M03 A3021 RMK A01 T00241034  RH  065%=      5-min Rain = 0
KHO1 190857Z 00017KT 02/M03 A3021 RMK A01 T00241034  RH  065%=      5-min Rain = 0
KHO1 190858Z 00015KT 02/M03 A3021 RMK A01 T00241034  RH  065%=      5-min Rain = 0
KHO1 190859Z 00014KT 02/M03 A3021 RMK A01 T00241034  RH  065%=      5-min Rain = 0
KHO1 190900Z 00012G21KT 02/M04 A3021 RMK A01 T00241035  RH  066%=      5-min Rain = 0
KHO1 190901Z 00015KT 02/M04 A3021 RMK A01 T00231035  RH  066%=      5-min Rain = 0
KHO1 190902Z 00015G21KT 02/M04 A3021 RMK A01 T00231035  RH  066%=      5-min Rain = 0
KHO1 190903Z 01016KT 02/M04 A3021 RMK A01 T00231035  RH  065%=      5-min Rain = 0
KHO1 190904Z 36016KT 02/M04 A3021 RMK A01 T00241035  RH  065%=      5-min Rain = 0
KHO1 190905Z 01015KT 02/M04 A3021 RMK A01 T00241035  RH  065%=      5-min Rain = 0
KHO1 190906Z 01012KT 02/M04 A3021 RMK A01 T00241035  RH  065%=      5-min Rain = 0
KHO1 190907Z 00012KT 02/M04 A3021 RMK A01 T00231035  RH  066%=      5-min Rain = 0
KHO1 190908Z 00015G20KT 02/M04 A3021 RMK A01 T00231035  RH  065%=      5-min Rain = 0
KHO1 190909Z 01012KT 02/M04 A3021 RMK A01 T00231035  RH  065%=      5-min Rain = 0
KHO1 190910Z 00012KT 02/M04 A3021 RMK A01 T00231035  RH  066%=      5-min Rain = 0
KHO1 190911Z 36009KT 02/M04 A3021 RMK A01 T00231035  RH  066%=      5-min Rain = 0
KHO1 190912Z 36010KT 02/M04 A3021 RMK A01 T00221035  RH  066%=      5-min Rain = 0
KHO1 190913Z 00011KT 02/M04 A3021 RMK A01 T00221035  RH  066%=      5-min Rain = 0
KHO1 190914Z 35009KT 02/M04 A3022 RMK A01 T00221035  RH  066%=      5-min Rain = 0
KHO1 190915Z 36011KT 02/M04 A3021 RMK A01 T00211035  RH  066%=      5-min Rain = 0
KHO1 190916Z 36012KT 02/M04 A3021 RMK A01 T00221035  RH  066%=      5-min Rain = 0
KHO1 190917Z 36012KT 02/M03 A3022 RMK A01 T00221034  RH  066%=      5-min Rain = 0
KHO1 190918Z 35012KT 02/M03 A3022 RMK A01 T00221034  RH  066%=      5-min Rain = 0
KHO1 190919Z 35012KT 02/M04 A3022 RMK A01 T00221035  RH  066%=      5-min Rain = 0
KHO1 190920Z 35011KT 02/M04 A3022 RMK A01 T00221035  RH  066%=      5-min Rain = 0
KHO1 190921Z 36012KT 02/M04 A3022 RMK A01 T00221035  RH  066%=      5-min Rain = 0
KHO1 190922Z 35014KT 02/M04 A3022 RMK A01 T00231035  RH  066%=      5-min Rain = 0
KHO1 190923Z 36010KT 02/M04 A3022 RMK A01 T00231035  RH  066%=      5-min Rain = 0
KHO1 190924Z 35011KT 02/M04 A3022 RMK A01 T00221035  RH  066%=      5-min Rain = 0
KHO1 190925Z 35010KT 02/M04 A3022 RMK A01 T00221035  RH  066%=      5-min Rain = 0
KHO1 190926Z 35010KT 02/M04 A3022 RMK A01 T00221035  RH  066%=      5-min Rain = 0
KHO1 190927Z 34007KT 02/M04 A3022 RMK A01 T00221035  RH  066%=      5-min Rain = 0
KHO1 190928Z 34009KT 02/M04 A3023 RMK A01 T00211035  RH  066%=      5-min Rain = 0
KHO1 190929Z 35009KT 02/M04 A3023 RMK A01 T00201035  RH  067%=      5-min Rain = 0
KHO1 190930Z 34011KT 02/M04 A3023 RMK A01 T00201035  RH  067%=      5-min Rain = 0
KHO1 190931Z 35009KT 02/M04 A3023 RMK A01 T00201035  RH  067%=      5-min Rain = 0
KHO1 190932Z 34011KT 02/M04 A3023 RMK A01 T00201035  RH  067%=      5-min Rain = 0
KHO1 190933Z 34011KT 02/M04 A3023 RMK A01 T00201035  RH  067%=      5-min Rain = 0
KHO1 190934Z 34011KT 02/M04 A3023 RMK A01 T00201035  RH  067%=      5-min Rain = 0
KHO1 190935Z 34011KT 02/M04 A3023 RMK A01 T00201035  RH  067%=      5-min Rain = 0
KHO1 190936Z 34013KT 02/M04 A3023 RMK A01 T00201035  RH  067%=      5-min Rain = 0
KHO1 190937Z 34011KT 02/M04 A3023 RMK A01 T00211035  RH  067%=      5-min Rain = 0
KHO1 190938Z 34012KT 02/M04 A3023 RMK A01 T00201035  RH  067%=      5-min Rain = 0
KHO1 190939Z 33008KT 02/M03 A3024 RMK A01 T00211034  RH  067%=      5-min Rain = 0
KHO1 190940Z 34009KT 02/M04 A3024 RMK A01 T00201035  RH  067%=      5-min Rain = 0
KHO1 190941Z 33008KT 02/M04 A3024 RMK A01 T00201035  RH  067%=      5-min Rain = 0
KHO1 190942Z 33008KT 02/M04 A3024 RMK A01 T00191035  RH  067%=      5-min Rain = 0
KHO1 190943Z 33007KT 02/M04 A3024 RMK A01 T00191035  RH  067%=      5-min Rain = 0
KHO1 190944Z 33008KT 02/M04 A3024 RMK A01 T00191035  RH  067%=      5-min Rain = 0
KHO1 190945Z 33007KT 02/M04 A3024 RMK A01 T00191035  RH  068%=      5-min Rain = 0
KHO1 190946Z 33009KT 02/M04 A3024 RMK A01 T00191035  RH  068%=      5-min Rain = 0
KHO1 190947Z 33007KT 02/M04 A3024 RMK A01 T00181035  RH  068%=      5-min Rain = 0
KHO1 190948Z 33008KT 02/M04 A3024 RMK A01 T00181035  RH  068%=      5-min Rain = 0
KHO1 190949Z 33009KT 02/M04 A3024 RMK A01 T00181035  RH  068%=      5-min Rain = 0
KHO1 190950Z 34008KT 02/M04 A3024 RMK A01 T00181035  RH  068%=      5-min Rain = 0
KHO1 190951Z 33006KT 02/M04 A3024 RMK A01 T00181035  RH  068%=      5-min Rain = 0
KHO1 190952Z 33006KT 02/M04 A3024 RMK A01 T00171035  RH  068%=      5-min Rain = 0
KHO1 190953Z 33009KT 02/M04 A3024 RMK A01 T00181035  RH  068%=      5-min Rain = 0
KHO1 190954Z 33007KT 02/M04 A3024 RMK A01 T00181035  RH  068%=      5-min Rain = 0
KHO1 190955Z 33008KT 02/M04 A3024 RMK A01 T00181035  RH  068%=      5-min Rain = 0
KHO1 190956Z 34010KT 02/M04 A3024 RMK A01 T00181035  RH  068%=      5-min Rain = 0
KHO1 190957Z 33010KT 02/M04 A3024 RMK A01 T00191035  RH  067%=      5-min Rain = 0
KHO1 190958Z 34009KT 02/M04 A3024 RMK A01 T00201035  RH  067%=      5-min Rain = 0
KHO1 190959Z 34008KT 02/M04 A3024 RMK A01 T00191036  RH  067%=      5-min Rain = 0
KHO1 191000Z 34008KT 02/M04 A3024 RMK A01 T00191036  RH  067%=      5-min Rain = 0
KHO1 191001Z 34009KT 02/M04 A3024 RMK A01 T00181036  RH  067%=      5-min Rain = 0
KHO1 191002Z 34010KT 02/M04 A3024 RMK A01 T00181036  RH  067%=      5-min Rain = 0
KHO1 191003Z 35008KT 02/M04 A3024 RMK A01 T00191036  RH  067%=      5-min Rain = 0
KHO1 191004Z 34008KT 02/M04 A3024 RMK A01 T00181036  RH  067%=      5-min Rain = 0
KHO1 191005Z 34010KT 02/M04 A3024 RMK A01 T00191036  RH  067%=      5-min Rain = 0
KHO1 191006Z 34009KT 02/M04 A3024 RMK A01 T00191036  RH  067%=      5-min Rain = 0
KHO1 191007Z 34009KT 02/M04 A3024 RMK A01 T00191036  RH  067%=      5-min Rain = 0
KHO1 191008Z 34009KT 02/M04 A3024 RMK A01 T00191036  RH  067%=      5-min Rain = 0
KHO1 191009Z 34009KT 02/M04 A3024 RMK A01 T00181036  RH  067%=      5-min Rain = 0
KHO1 191010Z 34009KT 02/M04 A3024 RMK A01 T00181036  RH  067%=      5-min Rain = 0
KHO1 191011Z 33008KT 02/M04 A3024 RMK A01 T00181036  RH  067%=      5-min Rain = 0
KHO1 191012Z 33008KT 02/M04 A3024 RMK A01 T00181036  RH  067%=      5-min Rain = 0
KHO1 191013Z 33008KT 02/M04 A3024 RMK A01 T00181036  RH  067%=      5-min Rain = 0
KHO1 191014Z 33008KT 02/M04 A3024 RMK A01 T00181036  RH  068%=      5-min Rain = 0
KHO1 191015Z 32008KT 02/M04 A3024 RMK A01 T00171036  RH  068%=      5-min Rain = 0
KHO1 191016Z 32009KT 02/M04 A3025 RMK A01 T00171036  RH  068%=      5-min Rain = 0
KHO1 191017Z 31007KT 02/M04 A3025 RMK A01 T00171036  RH  068%=      5-min Rain = 0
KHO1 191018Z 31007KT 02/M04 A3025 RMK A01 T00161036  RH  068%=      5-min Rain = 0
KHO1 191019Z 30006KT 02/M04 A3025 RMK A01 T00151036  RH  068%=      5-min Rain = 0
KHO1 191020Z 30006KT 02/M04 A3025 RMK A01 T00151037  RH  069%=      5-min Rain = 0
KHO1 191021Z 31006KT 01/M04 A3025 RMK A01 T00141037  RH  069%=      5-min Rain = 0
KHO1 191022Z 30006KT 01/M04 A3025 RMK A01 T00121037  RH  069%=      5-min Rain = 0
KHO1 191023Z 30007KT 01/M04 A3025 RMK A01 T00121037  RH  070%=      5-min Rain = 0
KHO1 191024Z 30007KT 01/M04 A3025 RMK A01 T00111037  RH  070%=      5-min Rain = 0
KHO1 191025Z 30008KT 01/M04 A3025 RMK A01 T00111037  RH  070%=      5-min Rain = 0
KHO1 191026Z 30007KT 01/M04 A3025 RMK A01 T00101037  RH  071%=      5-min Rain = 0
KHO1 191027Z 31007KT 01/M04 A3025 RMK A01 T00091037  RH  071%=      5-min Rain = 0
KHO1 191028Z 31007KT 01/M04 A3025 RMK A01 T00091037  RH  071%=      5-min Rain = 0
KHO1 191029Z 31008KT 01/M04 A3025 RMK A01 T00091037  RH  071%=      5-min Rain = 0
KHO1 191030Z 31007KT 01/M04 A3025 RMK A01 T00101036  RH  071%=      5-min Rain = 0
KHO1 191031Z 31007KT 01/M04 A3025 RMK A01 T00101036  RH  071%=      5-min Rain = 0
KHO1 191032Z 32006KT 01/M04 A3025 RMK A01 T00101036  RH  071%=      5-min Rain = 0
KHO1 191033Z 32007KT 01/M04 A3025 RMK A01 T00101036  RH  071%=      5-min Rain = 0
KHO1 191034Z 32007KT 01/M04 A3025 RMK A01 T00111036  RH  071%=      5-min Rain = 0
KHO1 191035Z 32007KT 01/M04 A3025 RMK A01 T00111036  RH  071%=      5-min Rain = 0
KHO1 191036Z 31007KT 01/M04 A3025 RMK A01 T00111036  RH  071%=      5-min Rain = 0
KHO1 191037Z 31009KT 01/M04 A3025 RMK A01 T00111036  RH  071%=      5-min Rain = 0
KHO1 191038Z 31008KT 01/M04 A3025 RMK A01 T00111036  RH  071%=      5-min Rain = 0
KHO1 191039Z 32008KT 01/M04 A3025 RMK A01 T00111036  RH  071%=      5-min Rain = 0
KHO1 191040Z 31008KT 01/M04 A3025 RMK A01 T00111036  RH  071%=      5-min Rain = 0
KHO1 191041Z 31008KT 01/M04 A3025 RMK A01 T00111036  RH  071%=      5-min Rain = 0
KHO1 191042Z 32007KT 01/M04 A3025 RMK A01 T00121036  RH  070%=      5-min Rain = 0
KHO1 191043Z 32008KT 01/M04 A3025 RMK A01 T00121036  RH  070%=      5-min Rain = 0
KHO1 191044Z 32008KT 01/M04 A3025 RMK A01 T00121036  RH  070%=      5-min Rain = 0
KHO1 191045Z 32007KT 01/M04 A3025 RMK A01 T00121036  RH  070%=      5-min Rain = 0
KHO1 191046Z 33008KT 01/M04 A3025 RMK A01 T00121036  RH  070%=      5-min Rain = 0
KHO1 191047Z 32009KT 01/M04 A3025 RMK A01 T00131036  RH  070%=      5-min Rain = 0
KHO1 191048Z 32009KT 01/M04 A3025 RMK A01 T00141036  RH  070%=      5-min Rain = 0
KHO1 191049Z 32008KT 01/M04 A3025 RMK A01 T00141036  RH  070%=      5-min Rain = 0
KHO1 191050Z 32007KT 01/M04 A3025 RMK A01 T00131036  RH  070%=      5-min Rain = 0
KHO1 191051Z 32007KT 01/M04 A3025 RMK A01 T00131036  RH  070%=      5-min Rain = 0
KHO1 191052Z 32009KT 01/M04 A3025 RMK A01 T00131036  RH  070%=      5-min Rain = 0
KHO1 191053Z 32009KT 01/M04 A3025 RMK A01 T00141036  RH  069%=      5-min Rain = 0
KHO1 191054Z 32009KT 01/M04 A3025 RMK A01 T00141036  RH  069%=      5-min Rain = 0
KHO1 191055Z 32010KT 02/M04 A3025 RMK A01 T00151036  RH  069%=      5-min Rain = 0
KHO1 191056Z 32009KT 02/M04 A3025 RMK A01 T00151036  RH  069%=      5-min Rain = 0
KHO1 191057Z 32008KT 02/M04 A3025 RMK A01 T00151037  RH  068%=      5-min Rain = 0
KHO1 191058Z 32008KT 02/M04 A3025 RMK A01 T00151037  RH  068%=      5-min Rain = 0
KHO1 191059Z 32008KT 02/M04 A3025 RMK A01 T00151037  RH  068%=      5-min Rain = 0
KHO1 191100Z 32009KT 02/M04 A3025 RMK A01 T00151037  RH  068%=      5-min Rain = 0
KHO1 191101Z 32009KT 02/M04 A3025 RMK A01 T00151037  RH  068%=      5-min Rain = 0
KHO1 191102Z 33009KT 02/M04 A3025 RMK A01 T00161037  RH  068%=      5-min Rain = 0
KHO1 191103Z 32010KT 02/M04 A3025 RMK A01 T00161037  RH  068%=      5-min Rain = 0
KHO1 191104Z 33008KT 02/M04 A3025 RMK A01 T00161037  RH  068%=      5-min Rain = 0
KHO1 191105Z 33009KT 02/M04 A3025 RMK A01 T00161037  RH  068%=      5-min Rain = 0
KHO1 191106Z 33008KT 02/M04 A3025 RMK A01 T00161037  RH  068%=      5-min Rain = 0
KHO1 191107Z 33009KT 02/M04 A3025 RMK A01 T00161037  RH  068%=      5-min Rain = 0
KHO1 191108Z 33010KT 02/M04 A3025 RMK A01 T00161038  RH  068%=      5-min Rain = 0
KHO1 191109Z 33009KT 02/M04 A3025 RMK A01 T00161038  RH  068%=      5-min Rain = 0
KHO1 191110Z 32009KT 02/M04 A3025 RMK A01 T00161038  RH  067%=      5-min Rain = 0
KHO1 191111Z 33009KT 02/M04 A3025 RMK A01 T00161038  RH  068%=      5-min Rain = 0
KHO1 191112Z 33009KT 02/M04 A3025 RMK A01 T00161038  RH  068%=      5-min Rain = 0
KHO1 191113Z 33008KT 02/M04 A3025 RMK A01 T00151038  RH  068%=      5-min Rain = 0
KHO1 191114Z 33009KT 02/M04 A3025 RMK A01 T00151038  RH  068%=      5-min Rain = 0
KHO1 191115Z 33009KT 02/M04 A3025 RMK A01 T00151038  RH  068%=      5-min Rain = 0
KHO1 191116Z 33010KT 02/M04 A3025 RMK A01 T00151038  RH  068%=      5-min Rain = 0
KHO1 191117Z 33009KT 02/M04 A3025 RMK A01 T00151038  RH  068%=      5-min Rain = 0
KHO1 191118Z 33010KT 02/M04 A3025 RMK A01 T00151038  RH  068%=      5-min Rain = 0
KHO1 191119Z 33011KT 02/M04 A3025 RMK A01 T00151038  RH  068%=      5-min Rain = 0
KHO1 191120Z 33009KT 02/M04 A3025 RMK A01 T00151038  RH  068%=      5-min Rain = 0
KHO1 191121Z 33010KT 02/M04 A3025 RMK A01 T00151038  RH  068%=      5-min Rain = 0
KHO1 191122Z 34011KT 02/M04 A3025 RMK A01 T00161038  RH  067%=      5-min Rain = 0
KHO1 191123Z 33009KT 02/M04 A3025 RMK A01 T00161038  RH  067%=      5-min Rain = 0
KHO1 191124Z 33009KT 02/M04 A3025 RMK A01 T00161039  RH  067%=      5-min Rain = 0
KHO1 191125Z 33010KT 02/M04 A3025 RMK A01 T00161039  RH  067%=      5-min Rain = 0
KHO1 191126Z 33010KT 02/M04 A3025 RMK A01 T00161039  RH  067%=      5-min Rain = 0
KHO1 191127Z 33010KT 02/M04 A3025 RMK A01 T00171039  RH  067%=      5-min Rain = 0
KHO1 191128Z 33011KT 02/M04 A3025 RMK A01 T00171039  RH  066%=      5-min Rain = 0
KHO1 191129Z 33012KT 02/M04 A3025 RMK A01 T00181039  RH  066%=      5-min Rain = 0
KHO1 191130Z 33010KT 02/M04 A3025 RMK A01 T00191039  RH  065%=      5-min Rain = 0
KHO1 191131Z 33009KT 02/M04 A3025 RMK A01 T00181039  RH  066%=      5-min Rain = 0
KHO1 191132Z 33012KT 02/M04 A3025 RMK A01 T00181040  RH  066%=      5-min Rain = 0
KHO1 191133Z 33009KT 02/M04 A3025 RMK A01 T00181040  RH  065%=      5-min Rain = 0
KHO1 191134Z 33010KT 02/M04 A3025 RMK A01 T00181040  RH  065%=      5-min Rain = 0
KHO1 191135Z 33010KT 02/M04 A3025 RMK A01 T00181040  RH  065%=      5-min Rain = 0
KHO1 191136Z 33009KT 02/M04 A3025 RMK A01 T00181040  RH  065%=      5-min Rain = 0
KHO1 191137Z 33009KT 02/M04 A3026 RMK A01 T00181040  RH  066%=      5-min Rain = 0
KHO1 191138Z 33007KT 02/M04 A3025 RMK A01 T00171040  RH  066%=      5-min Rain = 0
KHO1 191139Z 32009KT 02/M04 A3025 RMK A01 T00171040  RH  066%=      5-min Rain = 0
KHO1 191140Z 32011KT 02/M04 A3025 RMK A01 T00171040  RH  066%=      5-min Rain = 0
KHO1 191141Z 32010KT 02/M04 A3025 RMK A01 T00161040  RH  066%=      5-min Rain = 0
KHO1 191142Z 32010KT 02/M04 A3025 RMK A01 T00171040  RH  066%=      5-min Rain = 0
KHO1 191143Z 33010KT 02/M04 A3026 RMK A01 T00161040  RH  066%=      5-min Rain = 0
KHO1 191144Z 33010KT 02/M04 A3026 RMK A01 T00161040  RH  066%=      5-min Rain = 0
KHO1 191145Z 33011KT 02/M04 A3026 RMK A01 T00161040  RH  066%=      5-min Rain = 0
KHO1 191146Z 32010KT 02/M04 A3026 RMK A01 T00161040  RH  067%=      5-min Rain = 0
KHO1 191147Z 33011KT 02/M04 A3026 RMK A01 T00161040  RH  067%=      5-min Rain = 0
KHO1 191148Z 33010KT 02/M04 A3026 RMK A01 T00161040  RH  067%=      5-min Rain = 0
KHO1 191149Z 33010KT 02/M04 A3026 RMK A01 T00161040  RH  066%=      5-min Rain = 0
KHO1 191150Z 33010KT 02/M04 A3026 RMK A01 T00161040  RH  066%=      5-min Rain = 0
KHO1 191151Z 33009KT 02/M04 A3026 RMK A01 T00161040  RH  067%=      5-min Rain = 0
KHO1 191152Z 33009KT 02/M04 A3026 RMK A01 T00151040  RH  066%=      5-min Rain = 0
KHO1 191153Z 33009KT 02/M04 A3026 RMK A01 T00151040  RH  067%=      5-min Rain = 0
KHO1 191154Z 33009KT 02/M04 A3026 RMK A01 T00151040  RH  066%=      5-min Rain = 0
KHO1 191155Z 33009KT 02/M04 A3026 RMK A01 T00161040  RH  066%=      5-min Rain = 0
KHO1 191156Z 33009KT 02/M04 A3026 RMK A01 T00161040  RH  066%=      5-min Rain = 0
KHO1 191157Z 33010KT 02/M04 A3026 RMK A01 T00161041  RH  066%=      5-min Rain = 0
KHO1 191158Z 33008KT 02/M04 A3026 RMK A01 T00161041  RH  066%=      5-min Rain = 0
KHO1 191159Z 33009KT 02/M04 A3026 RMK A01 T00151041  RH  066%=      5-min Rain = 0
KHO1 191200Z 33010KT 02/M04 A3026 RMK A01 T00151041  RH  066%=      5-min Rain = 0
KHO1 191201Z 33010KT 02/M04 A3026 RMK A01 T00151041  RH  066%=      5-min Rain = 0
KHO1 191202Z 33009KT 02/M04 A3026 RMK A01 T00151041  RH  066%=      5-min Rain = 0
KHO1 191203Z 32010KT 02/M04 A3026 RMK A01 T00151041  RH  066%=      5-min Rain = 0
KHO1 191204Z 32010KT 02/M04 A3026 RMK A01 T00151041  RH  067%=      5-min Rain = 0
KHO1 191205Z 32009KT 02/M04 A3026 RMK A01 T00151041  RH  067%=      5-min Rain = 0
KHO1 191206Z 32008KT 01/M04 A3026 RMK A01 T00141041  RH  067%=      5-min Rain = 0
KHO1 191207Z 32008KT 01/M04 A3026 RMK A01 T00131041  RH  067%=      5-min Rain = 0
KHO1 191208Z 33007KT 01/M04 A3026 RMK A01 T00131041  RH  067%=      5-min Rain = 0
KHO1 191209Z 32007KT 01/M04 A3026 RMK A01 T00131041  RH  068%=      5-min Rain = 0
KHO1 191210Z 33008KT 01/M04 A3026 RMK A01 T00121041  RH  068%=      5-min Rain = 0
KHO1 191211Z 33007KT 01/M04 A3026 RMK A01 T00121041  RH  068%=      5-min Rain = 0
KHO1 191212Z 32008KT 01/M04 A3027 RMK A01 T00111041  RH  068%=      5-min Rain = 0
KHO1 191213Z 32008KT 01/M04 A3027 RMK A01 T00111041  RH  068%=      5-min Rain = 0
KHO1 191214Z 32007KT 01/M04 A3027 RMK A01 T00111041  RH  068%=      5-min Rain = 0
KHO1 191215Z 32008KT 01/M04 A3027 RMK A01 T00111041  RH  069%=      5-min Rain = 0
KHO1 191216Z 32009KT 01/M04 A3027 RMK A01 T00101041  RH  069%=      5-min Rain = 0
KHO1 191217Z 32008KT 01/M04 A3027 RMK A01 T00101041  RH  069%=      5-min Rain = 0
KHO1 191218Z 32008KT 01/M04 A3027 RMK A01 T00091041  RH  069%=      5-min Rain = 0
KHO1 191219Z 32007KT 01/M04 A3027 RMK A01 T00091041  RH  070%=      5-min Rain = 0
KHO1 191220Z 31007KT 01/M04 A3028 RMK A01 T00081041  RH  070%=      5-min Rain = 0
KHO1 191221Z 31007KT 01/M04 A3028 RMK A01 T00071041  RH  070%=      5-min Rain = 0
KHO1 191222Z 31008KT 01/M04 A3028 RMK A01 T00061041  RH  071%=      5-min Rain = 0
KHO1 191223Z 32008KT 01/M04 A3028 RMK A01 T00061041  RH  071%=      5-min Rain = 0
KHO1 191224Z 31009KT 01/M04 A3028 RMK A01 T00051041  RH  071%=      5-min Rain = 0
KHO1 191225Z 32009KT 00/M04 A3028 RMK A01 T00041041  RH  071%=      5-min Rain = 0
KHO1 191226Z 32008KT 00/M04 A3028 RMK A01 T00041041  RH  072%=      5-min Rain = 0
KHO1 191227Z 32009KT 00/M04 A3028 RMK A01 T00031041  RH  072%=      5-min Rain = 0
KHO1 191228Z 32009KT 00/M04 A3028 RMK A01 T00031041  RH  072%=      5-min Rain = 0
KHO1 191229Z 32009KT 00/M04 A3028 RMK A01 T00031041  RH  072%=      5-min Rain = 0
KHO1 191230Z 32008KT 00/M04 A3028 RMK A01 T00031041  RH  072%=      5-min Rain = 0
KHO1 191231Z 31009KT 00/M04 A3029 RMK A01 T00031042  RH  072%=      5-min Rain = 0
KHO1 191232Z 31009KT 00/M04 A3029 RMK A01 T00031041  RH  072%=      5-min Rain = 0
KHO1 191233Z 31009KT 00/M04 A3029 RMK A01 T00031042  RH  072%=      5-min Rain = 0
KHO1 191234Z 32008KT 00/M04 A3029 RMK A01 T00031042  RH  072%=      5-min Rain = 0
KHO1 191235Z 31009KT 00/M04 A3029 RMK A01 T00031042  RH  072%=      5-min Rain = 0
KHO1 191236Z 32009KT 00/M04 A3029 RMK A01 T00031042  RH  072%=      5-min Rain = 0
KHO1 191237Z 32008KT 00/M04 A3029 RMK A01 T00031042  RH  072%=      5-min Rain = 0
KHO1 191238Z 32010KT 00/M04 A3029 RMK A01 T00021042  RH  072%=      5-min Rain = 0
KHO1 191239Z 32010KT 00/M04 A3029 RMK A01 T00031042  RH  072%=      5-min Rain = 0
KHO1 191240Z 32010KT 00/M04 A3029 RMK A01 T00031042  RH  072%=      5-min Rain = 0
KHO1 191241Z 32010KT 00/M04 A3029 RMK A01 T00031042  RH  072%=      5-min Rain = 0
KHO1 191242Z 32009KT 00/M04 A3029 RMK A01 T00031042  RH  072%=      5-min Rain = 0
KHO1 191243Z 32008KT 00/M04 A3029 RMK A01 T00031042  RH  072%=      5-min Rain = 0
KHO1 191244Z 32009KT 00/M04 A3029 RMK A01 T00031042  RH  072%=      5-min Rain = 0
KHO1 191245Z 32008KT 00/M04 A3029 RMK A01 T00031042  RH  072%=      5-min Rain = 0
KHO1 191246Z 32009KT 00/M04 A3029 RMK A01 T00031042  RH  072%=      5-min Rain = 0
KHO1 191247Z 32009KT 00/M04 A303 RMK A01 T00021042  RH  072%=      5-min Rain = 0
KHO1 191248Z 32010KT 00/M04 A303 RMK A01 T00021042  RH  072%=      5-min Rain = 0
KHO1 191249Z 31010KT 00/M04 A303 RMK A01 T00021042  RH  072%=      5-min Rain = 0
KHO1 191250Z 31009KT 00/M04 A303 RMK A01 T00021042  RH  072%=      5-min Rain = 0
KHO1 191251Z 32009KT 00/M04 A303 RMK A01 T00021043  RH  072%=      5-min Rain = 0
KHO1 191252Z 32010KT 00/M04 A303 RMK A01 T00021043  RH  072%=      5-min Rain = 0
KHO1 191253Z 32010KT 00/M04 A303 RMK A01 T00021043  RH  072%=      5-min Rain = 0
KHO1 191254Z 32009KT 00/M04 A303 RMK A01 T00021043  RH  072%=      5-min Rain = 0
KHO1 191255Z 32008KT 00/M04 A303 RMK A01 T00011043  RH  072%=      5-min Rain = 0
KHO1 191256Z 32008KT 00/M04 A303 RMK A01 T00011043  RH  072%=      5-min Rain = 0
KHO1 191257Z 32009KT 00/M04 A303 RMK A01 T00011043  RH  072%=      5-min Rain = 0
KHO1 191258Z 32009KT 00/M04 A303 RMK A01 T00011043  RH  072%=      5-min Rain = 0
KHO1 191259Z 32010KT 00/04 A303 RMK A01 T00000-43  RH  073%=      5-min Rain = 0
KHO1 191300Z 32009KT 00/04 A303 RMK A01 T00000-43  RH  073%=      5-min Rain = 0
KHO1 191301Z 32010KT 00/M04 A303 RMK A01 T00011043  RH  072%=      5-min Rain = 0
KHO1 191302Z 32010KT 00/M04 A303 RMK A01 T00011043  RH  072%=      5-min Rain = 0
KHO1 191303Z 32010KT 00/M04 A303 RMK A01 T00011043  RH  072%=      5-min Rain = 0
KHO1 191304Z 32010KT 00/M04 A303 RMK A01 T00021043  RH  072%=      5-min Rain = 0
KHO1 191305Z 32009KT 00/M04 A303 RMK A01 T00021043  RH  072%=      5-min Rain = 0
KHO1 191306Z 32010KT 00/M04 A303 RMK A01 T00021043  RH  072%=      5-min Rain = 0
KHO1 191307Z 32009KT 00/M04 A303 RMK A01 T00011043  RH  072%=      5-min Rain = 0
KHO1 191308Z 32010KT 00/M04 A303 RMK A01 T00011043  RH  072%=      5-min Rain = 0
KHO1 191309Z 32009KT 00/M04 A303 RMK A01 T00021043  RH  072%=      5-min Rain = 0
KHO1 191310Z 32008KT 00/M04 A303 RMK A01 T00021043  RH  072%=      5-min Rain = 0
KHO1 191311Z 32008KT 00/M04 A303 RMK A01 T00021043  RH  072%=      5-min Rain = 0
KHO1 191312Z 32008KT 00/M04 A303 RMK A01 T00021043  RH  072%=      5-min Rain = 0
KHO1 191313Z 32009KT 00/M04 A303 RMK A01 T00021042  RH  072%=      5-min Rain = 0
KHO1 191314Z 32009KT 00/M04 A303 RMK A01 T00021042  RH  072%=      5-min Rain = 0
KHO1 191315Z 32008KT 00/M04 A303 RMK A01 T00021042  RH  072%=      5-min Rain = 0
KHO1 191316Z 32008KT 00/M04 A303 RMK A01 T00011043  RH  072%=      5-min Rain = 0
KHO1 191317Z 31008KT 00/M04 A303 RMK A01 T00011042  RH  073%=      5-min Rain = 0
KHO1 191318Z 32007KT 00/M04 A303 RMK A01 T00011042  RH  073%=      5-min Rain = 0
KHO1 191319Z 31009KT 00/M04 A3031 RMK A01 T00011042  RH  073%=      5-min Rain = 0
KHO1 191320Z 32009KT 00/M04 A3031 RMK A01 T00011042  RH  073%=      5-min Rain = 0
KHO1 191321Z 32008KT 00/M04 A3031 RMK A01 T00011042  RH  073%=      5-min Rain = 0
KHO1 191322Z 32009KT 00/04 A3031 RMK A01 T00000-42  RH  073%=      5-min Rain = 0
KHO1 191323Z 31008KT 00/04 A3031 RMK A01 T00000-42  RH  073%=      5-min Rain = 0
KHO1 191324Z 32009KT 00/04 A3031 RMK A01 T00000-42  RH  073%=      5-min Rain = 0
KHO1 191325Z 32008KT 00/04 A3031 RMK A01 T00000-42  RH  073%=      5-min Rain = 0
KHO1 191326Z 32007KT 00/04 A3031 RMK A01 T00000-43  RH  073%=      5-min Rain = 0
KHO1 191327Z 32007KT 00/04 A3031 RMK A01 T00-00-42  RH  073%=      5-min Rain = 0
KHO1 191328Z 32008KT 00/04 A3031 RMK A01 T00-00-42  RH  073%=      5-min Rain = 0
KHO1 191329Z 32007KT 00/04 A3031 RMK A01 T00000-42  RH  073%=      5-min Rain = 0
KHO1 191330Z 32007KT 00/04 A3031 RMK A01 T00000-42  RH  073%=      5-min Rain = 0
KHO1 191331Z 32009KT 00/04 A3031 RMK A01 T00000-42  RH  073%=      5-min Rain = 0
KHO1 191332Z 32007KT 00/04 A3031 RMK A01 T00000-42  RH  073%=      5-min Rain = 0
KHO1 191333Z 33008KT 00/M04 A3031 RMK A01 T00011042  RH  073%=      5-min Rain = 0
KHO1 191334Z 33007KT 00/M04 A3031 RMK A01 T00011042  RH  073%=      5-min Rain = 0
KHO1 191335Z 32008KT 00/M04 A3031 RMK A01 T00011042  RH  073%=      5-min Rain = 0
KHO1 191336Z 32008KT 00/M04 A3031 RMK A01 T00011042  RH  073%=      5-min Rain = 0
KHO1 191337Z 32007KT 00/M04 A3031 RMK A01 T00011042  RH  073%=      5-min Rain = 0
KHO1 191338Z 32008KT 00/M04 A3031 RMK A01 T00011042  RH  073%=      5-min Rain = 0
KHO1 191339Z 32009KT 00/M04 A3031 RMK A01 T00011042  RH  073%=      5-min Rain = 0
KHO1 191340Z 32009KT 00/M04 A3031 RMK A01 T00011042  RH  073%=      5-min Rain = 0
KHO1 191341Z 32008KT 00/M04 A3031 RMK A01 T00011042  RH  073%=      5-min Rain = 0
KHO1 191342Z 32008KT 00/M04 A3031 RMK A01 T00011042  RH  073%=      5-min Rain = 0
KHO1 191343Z 32008KT 00/M04 A3031 RMK A01 T00011042  RH  073%=      5-min Rain = 0
KHO1 191344Z 32008KT 00/M04 A3032 RMK A01 T00011042  RH  073%=      5-min Rain = 0
KHO1 191345Z 32007KT 00/M04 A3031 RMK A01 T00011042  RH  073%=      5-min Rain = 0
KHO1 191346Z 32007KT 00/M04 A3032 RMK A01 T00011042  RH  073%=      5-min Rain = 0
KHO1 191347Z 32008KT 00/M04 A3031 RMK A01 T00011042  RH  073%=      5-min Rain = 0
KHO1 191348Z 32009KT 00/M04 A3032 RMK A01 T00021042  RH  072%=      5-min Rain = 0
KHO1 191349Z 32008KT 00/M04 A3032 RMK A01 T00021042  RH  072%=      5-min Rain = 0
KHO1 191350Z 32008KT 00/M04 A3032 RMK A01 T00021042  RH  072%=      5-min Rain = 0
KHO1 191351Z 32008KT 00/M04 A3032 RMK A01 T00031042  RH  072%=      5-min Rain = 0
KHO1 191352Z 32007KT 00/M04 A3032 RMK A01 T00041042  RH  072%=      5-min Rain = 0
KHO1 191353Z 33008KT 00/M04 A3032 RMK A01 T00041042  RH  071%=      5-min Rain = 0
KHO1 191354Z 33009KT 01/M04 A3032 RMK A01 T00051042  RH  071%=      5-min Rain = 0
KHO1 191355Z 32008KT 01/M04 A3032 RMK A01 T00061042  RH  070%=      5-min Rain = 0
KHO1 191356Z 32008KT 01/M04 A3032 RMK A01 T00061042  RH  070%=      5-min Rain = 0
KHO1 191357Z 33008KT 01/M04 A3032 RMK A01 T00071042  RH  070%=      5-min Rain = 0
KHO1 191358Z 33009KT 01/M04 A3032 RMK A01 T00071042  RH  069%=      5-min Rain = 0
KHO1 191359Z 33008KT 01/M04 A3032 RMK A01 T00081043  RH  069%=      5-min Rain = 0
KHO1 191400Z 33008KT 01/M04 A3032 RMK A01 T00091042  RH  069%=      5-min Rain = 0
KHO1 191401Z 33008KT 01/M04 A3032 RMK A01 T00091043  RH  068%=      5-min Rain = 0
KHO1 191402Z 33007KT 01/M04 A3032 RMK A01 T00091043  RH  068%=      5-min Rain = 0
KHO1 191403Z 33007KT 01/M04 A3032 RMK A01 T00101043  RH  068%=      5-min Rain = 0
KHO1 191404Z 33008KT 01/M04 A3032 RMK A01 T00111043  RH  068%=      5-min Rain = 0
KHO1 191405Z 33008KT 01/M04 A3032 RMK A01 T00111043  RH  067%=      5-min Rain = 0
KHO1 191406Z 33008KT 01/M04 A3032 RMK A01 T00121043  RH  067%=      5-min Rain = 0
KHO1 191407Z 33008KT 01/M04 A3032 RMK A01 T00121043  RH  067%=      5-min Rain = 0
KHO1 191408Z 33008KT 01/M04 A3032 RMK A01 T00131043  RH  067%=      5-min Rain = 0
KHO1 191409Z 33008KT 01/M04 A3032 RMK A01 T00131043  RH  067%=      5-min Rain = 0
KHO1 191410Z 33007KT 01/M04 A3032 RMK A01 T00131043  RH  067%=      5-min Rain = 0
KHO1 191411Z 33007KT 01/M04 A3032 RMK A01 T00131043  RH  066%=      5-min Rain = 0
KHO1 191412Z 33008KT 01/M04 A3032 RMK A01 T00141043  RH  066%=      5-min Rain = 0
KHO1 191413Z 33007KT 01/M04 A3032 RMK A01 T00141043  RH  066%=      5-min Rain = 0
KHO1 191414Z 33007KT 01/M04 A3032 RMK A01 T00141043  RH  066%=      5-min Rain = 0
KHO1 191415Z 33007KT 02/M04 A3032 RMK A01 T00151043  RH  065%=      5-min Rain = 0
KHO1 191416Z 33007KT 02/M04 A3032 RMK A01 T00151043  RH  065%=      5-min Rain = 0
KHO1 191417Z 33007KT 02/M04 A3032 RMK A01 T00151042  RH  065%=      5-min Rain = 0
KHO1 191418Z 33007KT 02/M04 A3032 RMK A01 T00161043  RH  065%=      5-min Rain = 0
KHO1 191419Z 33007KT 02/M04 A3032 RMK A01 T00161043  RH  065%=      5-min Rain = 0
KHO1 191420Z 33007KT 02/M04 A3032 RMK A01 T00171043  RH  065%=      5-min Rain = 0
KHO1 191421Z 33007KT 02/M04 A3032 RMK A01 T00171043  RH  064%=      5-min Rain = 0
KHO1 191422Z 33007KT 02/M04 A3032 RMK A01 T00181042  RH  064%=      5-min Rain = 0
KHO1 191423Z 33007KT 02/M04 A3032 RMK A01 T00181042  RH  064%=      5-min Rain = 0
KHO1 191424Z 33006KT 02/M04 A3032 RMK A01 T00181042  RH  064%=      5-min Rain = 0
KHO1 191425Z 33006KT 02/M04 A3032 RMK A01 T00181042  RH  064%=      5-min Rain = 0
KHO1 191426Z 33006KT 02/M04 A3033 RMK A01 T00191042  RH  064%=      5-min Rain = 0
KHO1 191427Z 34006KT 02/M04 A3033 RMK A01 T00191041  RH  064%=      5-min Rain = 0
KHO1 191428Z 34007KT 02/M04 A3033 RMK A01 T00191041  RH  064%=      5-min Rain = 0
KHO1 191429Z 33007KT 02/M04 A3033 RMK A01 T00191041  RH  064%=      5-min Rain = 0
KHO1 191430Z 33007KT 02/M04 A3032 RMK A01 T00191041  RH  064%=      5-min Rain = 0
KHO1 191431Z 33007KT 02/M04 A3032 RMK A01 T00191041  RH  064%=      5-min Rain = 0
KHO1 191432Z 34007KT 02/M04 A3032 RMK A01 T00191041  RH  064%=      5-min Rain = 0
KHO1 191433Z 34007KT 02/M04 A3032 RMK A01 T00191041  RH  064%=      5-min Rain = 0
KHO1 191434Z 34007KT 02/M04 A3032 RMK A01 T00191041  RH  065%=      5-min Rain = 0
KHO1 191435Z 34007KT 02/M04 A3032 RMK A01 T00191041  RH  064%=      5-min Rain = 0
KHO1 191436Z 33007KT 02/M04 A3032 RMK A01 T00191041  RH  064%=      5-min Rain = 0
KHO1 191437Z 33007KT 02/M04 A3032 RMK A01 T00201041  RH  064%=      5-min Rain = 0
KHO1 191438Z 33007KT 02/M04 A3032 RMK A01 T00201041  RH  064%=      5-min Rain = 0
KHO1 191439Z 33006KT 02/M04 A3032 RMK A01 T00211040  RH  064%=      5-min Rain = 0
KHO1 191440Z 32007KT 02/M04 A3032 RMK A01 T00211041  RH  064%=      5-min Rain = 0
KHO1 191441Z 32008KT 02/M04 A3032 RMK A01 T00221040  RH  064%=      5-min Rain = 0
KHO1 191442Z 31006KT 02/M04 A3032 RMK A01 T00221039  RH  064%=      5-min Rain = 0
KHO1 191443Z 31006KT 02/M04 A3033 RMK A01 T00221039  RH  064%=      5-min Rain = 0
KHO1 191444Z 32006KT 02/M04 A3033 RMK A01 T00221039  RH  064%=      5-min Rain = 0
KHO1 191445Z 32007KT 02/M04 A3033 RMK A01 T00221039  RH  064%=      5-min Rain = 0
KHO1 191446Z 31006KT 02/M04 A3033 RMK A01 T00221039  RH  064%=      5-min Rain = 0
KHO1 191447Z 32007KT 02/M04 A3033 RMK A01 T00221039  RH  064%=      5-min Rain = 0
KHO1 191448Z 32007KT 02/M04 A3033 RMK A01 T00211039  RH  064%=      5-min Rain = 0
KHO1 191449Z 32008KT 02/M04 A3033 RMK A01 T00211039  RH  064%=      5-min Rain = 0
KHO1 191450Z 32007KT 02/M04 A3033 RMK A01 T00211038  RH  065%=      5-min Rain = 0
KHO1 191451Z 32006KT 02/M04 A3033 RMK A01 T00221037  RH  065%=      5-min Rain = 0
KHO1 191452Z 32006KT 02/M04 A3033 RMK A01 T00221037  RH  065%=      5-min Rain = 0
KHO1 191453Z 32006KT 02/M04 A3033 RMK A01 T00231037  RH  065%=      5-min Rain = 0
KHO1 191454Z 32006KT 02/M04 A3033 RMK A01 T00231036  RH  065%=      5-min Rain = 0
KHO1 191455Z 32006KT 02/M04 A3034 RMK A01 T00241035  RH  065%=      5-min Rain = 0
KHO1 191456Z 32006KT 03/M04 A3034 RMK A01 T00251035  RH  065%=      5-min Rain = 0
KHO1 191457Z 32006KT 03/M04 A3034 RMK A01 T00261035  RH  064%=      5-min Rain = 0
KHO1 191458Z 32008KT 03/M04 A3034 RMK A01 T00271036  RH  064%=      5-min Rain = 0
KHO1 191459Z 32008KT 03/M04 A3034 RMK A01 T00271035  RH  063%=      5-min Rain = 0
KHO1 191500Z 32008KT 03/M04 A3034 RMK A01 T00281035  RH  063%=      5-min Rain = 0
KHO1 191501Z 32009KT 03/M04 A3034 RMK A01 T00291036  RH  063%=      5-min Rain = 0
KHO1 191502Z 31008KT 03/M04 A3034 RMK A01 T00291035  RH  063%=      5-min Rain = 0
KHO1 191503Z 32008KT 03/M03 A3034 RMK A01 T00301034  RH  063%=      5-min Rain = 0
KHO1 191504Z 32008KT 03/M03 A3034 RMK A01 T00301034  RH  063%=      5-min Rain = 0
KHO1 191505Z 32008KT 03/M03 A3034 RMK A01 T00311034  RH  063%=      5-min Rain = 0
KHO1 191506Z 32007KT 03/M03 A3034 RMK A01 T00311033  RH  063%=      5-min Rain = 0
KHO1 191507Z 32008KT 03/M03 A3034 RMK A01 T00321034  RH  062%=      5-min Rain = 0
KHO1 191508Z 33007KT 03/M03 A3034 RMK A01 T00321034  RH  062%=      5-min Rain = 0
KHO1 191509Z 32008KT 03/M03 A3034 RMK A01 T00321033  RH  062%=      5-min Rain = 0
KHO1 191510Z 33008KT 03/M03 A3034 RMK A01 T00331034  RH  062%=      5-min Rain = 0
KHO1 191511Z 32007KT 03/M03 A3034 RMK A01 T00341033  RH  062%=      5-min Rain = 0
KHO1 191512Z 33008KT 04/M03 A3034 RMK A01 T00351033  RH  061%=      5-min Rain = 0
KHO1 191513Z 33009KT 04/M03 A3034 RMK A01 T00351033  RH  061%=      5-min Rain = 0
KHO1 191514Z 33009KT 04/M03 A3034 RMK A01 T00361034  RH  060%=      5-min Rain = 0
KHO1 191515Z 33008KT 04/M03 A3035 RMK A01 T00371033  RH  060%=      5-min Rain = 0
KHO1 191516Z 33008KT 04/M03 A3035 RMK A01 T00381032  RH  060%=      5-min Rain = 0
KHO1 191517Z 33008KT 04/M03 A3035 RMK A01 T00391032  RH  060%=      5-min Rain = 0
KHO1 191518Z 33007KT 04/M03 A3035 RMK A01 T00401032  RH  059%=      5-min Rain = 0
KHO1 191519Z 33007KT 04/M03 A3035 RMK A01 T00421031  RH  059%=      5-min Rain = 0
KHO1 191520Z 33008KT 04/M03 A3035 RMK A01 T00421033  RH  058%=      5-min Rain = 0
KHO1 191521Z 33007KT 04/M03 A3034 RMK A01 T00431032  RH  058%=      5-min Rain = 0
KHO1 191522Z 34008KT 05/M03 A3035 RMK A01 T00451033  RH  057%=      5-min Rain = 0
KHO1 191523Z 34008KT 05/M03 A3035 RMK A01 T00461032  RH  057%=      5-min Rain = 0
KHO1 191524Z 34009KT 05/M03 A3035 RMK A01 T00481032  RH  056%=      5-min Rain = 0
KHO1 191525Z 34009KT 05/M03 A3035 RMK A01 T00501033  RH  055%=      5-min Rain = 0
KHO1 191526Z 33009KT 05/M04 A3035 RMK A01 T00521036  RH  053%=      5-min Rain = 0
KHO1 191527Z 34009KT 05/M04 A3035 RMK A01 T00541036  RH  052%=      5-min Rain = 0
KHO1 191528Z 34009KT 06/M04 A3035 RMK A01 T00551038  RH  051%=      5-min Rain = 0
KHO1 191529Z 34008KT 06/M04 A3035 RMK A01 T00571037  RH  051%=      5-min Rain = 0
KHO1 191530Z 34010KT 06/M04 A3035 RMK A01 T00581038  RH  050%=      5-min Rain = 0
KHO1 191531Z 34012KT 06/M04 A3035 RMK A01 T00581040  RH  049%=      5-min Rain = 0
KHO1 191532Z 34014KT 06/M04 A3035 RMK A01 T00581041  RH  049%=      5-min Rain = 0
KHO1 191533Z 35012KT 06/M04 A3035 RMK A01 T00581042  RH  049%=      5-min Rain = 0
KHO1 191534Z 35013KT 06/M04 A3035 RMK A01 T00581042  RH  049%=      5-min Rain = 0
KHO1 191535Z 34013KT 06/M04 A3035 RMK A01 T00581043  RH  048%=      5-min Rain = 0
KHO1 191536Z 34012KT 06/M04 A3035 RMK A01 T00581043  RH  048%=      5-min Rain = 0
KHO1 191537Z 34013KT 06/M04 A3035 RMK A01 T00581043  RH  048%=      5-min Rain = 0
KHO1 191538Z 35011KT 06/M04 A3036 RMK A01 T00581042  RH  049%=      5-min Rain = 0
KHO1 191539Z 34011KT 06/M04 A3036 RMK A01 T00591041  RH  048%=      5-min Rain = 0
KHO1 191540Z 35010KT 06/M04 A3036 RMK A01 T00601041  RH  048%=      5-min Rain = 0
KHO1 191541Z 35012KT 06/M04 A3036 RMK A01 T00601043  RH  048%=      5-min Rain = 0
KHO1 191542Z 35009KT 06/M04 A3036 RMK A01 T00601041  RH  048%=      5-min Rain = 0
KHO1 191543Z 35010KT 06/M04 A3036 RMK A01 T00601042  RH  048%=      5-min Rain = 0
KHO1 191544Z 34012KT 06/M04 A3036 RMK A01 T00611042  RH  048%=      5-min Rain = 0
KHO1 191545Z 34012KT 06/M04 A3036 RMK A01 T00611042  RH  048%=      5-min Rain = 0
KHO1 191546Z 34014KT 06/M04 A3036 RMK A01 T00621042  RH  047%=      5-min Rain = 0
KHO1 191547Z 34012KT 06/M04 A3036 RMK A01 T00621042  RH  047%=      5-min Rain = 0
KHO1 191548Z 34013KT 06/M04 A3036 RMK A01 T00621042  RH  047%=      5-min Rain = 0
KHO1 191549Z 34010KT 06/M04 A3036 RMK A01 T00631042  RH  047%=      5-min Rain = 0
KHO1 191550Z 34011KT 06/M04 A3036 RMK A01 T00641041  RH  047%=      5-min Rain = 0
KHO1 191551Z 35011KT 06/M04 A3036 RMK A01 T00641042  RH  047%=      5-min Rain = 0
KHO1 191552Z 34011KT 07/M04 A3036 RMK A01 T00651041  RH  047%=      5-min Rain = 0
KHO1 191553Z 35013KT 06/M04 A3036 RMK A01 T00641044  RH  046%=      5-min Rain = 0
KHO1 191554Z 35011KT 06/M04 A3036 RMK A01 T00641043  RH  046%=      5-min Rain = 0
KHO1 191555Z 34010KT 06/M04 A3036 RMK A01 T00641042  RH  047%=      5-min Rain = 0
KHO1 191556Z 34011KT 07/M04 A3036 RMK A01 T00661040  RH  047%=      5-min Rain = 0
KHO1 191557Z 34014KT 07/M04 A3036 RMK A01 T00661043  RH  046%=      5-min Rain = 0
KHO1 191558Z 34010KT 07/M04 A3036 RMK A01 T00661044  RH  045%=      5-min Rain = 0
KHO1 191559Z 35009KT 07/M04 A3037 RMK A01 T00671041  RH  046%=      5-min Rain = 0
KHO1 191600Z 34009KT 07/M04 A3037 RMK A01 T00691040  RH  046%=      5-min Rain = 0
KHO1 191601Z 35012KT 07/M04 A3037 RMK A01 T00691043  RH  045%=      5-min Rain = 0
KHO1 191602Z 34011KT 07/M04 A3037 RMK A01 T00691042  RH  045%=      5-min Rain = 0
KHO1 191603Z 34014KT 07/M05 A3037 RMK A01 T00691045  RH  044%=      5-min Rain = 0
KHO1 191604Z 34012KT 07/M05 A3037 RMK A01 T00691045  RH  044%=      5-min Rain = 0
KHO1 191605Z 34013KT 07/M05 A3037 RMK A01 T00691045  RH  044%=      5-min Rain = 0
KHO1 191606Z 34013KT 07/M04 A3037 RMK A01 T00691043  RH  045%=      5-min Rain = 0
KHO1 191607Z 34012KT 07/M04 A3037 RMK A01 T00701044  RH  044%=      5-min Rain = 0
KHO1 191608Z 34013KT 07/M04 A3037 RMK A01 T00701044  RH  044%=      5-min Rain = 0
KHO1 191609Z 34013KT 07/M05 A3037 RMK A01 T00691045  RH  044%=      5-min Rain = 0
KHO1 191610Z 35011KT 07/M04 A3037 RMK A01 T00701044  RH  044%=      5-min Rain = 0
KHO1 191611Z 35011KT 07/M04 A3037 RMK A01 T00711044  RH  044%=      5-min Rain = 0
KHO1 191612Z 35010KT 07/M04 A3037 RMK A01 T00721044  RH  043%=      5-min Rain = 0
KHO1 191613Z 35012KT 07/M05 A3037 RMK A01 T00721045  RH  043%=      5-min Rain = 0
KHO1 191614Z 34012KT 07/M05 A3037 RMK A01 T00721045  RH  043%=      5-min Rain = 0
KHO1 191615Z 35011KT 07/M05 A3037 RMK A01 T00721046  RH  043%=      5-min Rain = 0
KHO1 191616Z 35011KT 07/M05 A3037 RMK A01 T00731045  RH  043%=      5-min Rain = 0
KHO1 191617Z 34010KT 07/M04 A3037 RMK A01 T00731044  RH  043%=      5-min Rain = 0
KHO1 191618Z 34010KT 08/M05 A3037 RMK A01 T00751045  RH  042%=      5-min Rain = 0
KHO1 191619Z 35008KT 08/M04 A3037 RMK A01 T00761044  RH  042%=      5-min Rain = 0
KHO1 191620Z 35009KT 08/M05 A3037 RMK A01 T00771045  RH  042%=      5-min Rain = 0
KHO1 191621Z 34012KT 08/M05 A3037 RMK A01 T00781046  RH  041%=      5-min Rain = 0
KHO1 191622Z 34012KT 08/M05 A3037 RMK A01 T00781045  RH  041%=      5-min Rain = 0
KHO1 191623Z 35013KT 08/M05 A3037 RMK A01 T00781047  RH  041%=      5-min Rain = 0
KHO1 191624Z 35013KT 08/M05 A3037 RMK A01 T00781048  RH  040%=      5-min Rain = 0
KHO1 191625Z 35012KT 08/M05 A3037 RMK A01 T00781048  RH  040%=      5-min Rain = 0
KHO1 191626Z 35010KT 08/M05 A3037 RMK A01 T00791049  RH  040%=      5-min Rain = 0
KHO1 191627Z 35013KT 08/M05 A3037 RMK A01 T00791051  RH  040%=      5-min Rain = 0
KHO1 191628Z 35012KT 08/M05 A3037 RMK A01 T00791051  RH  039%=      5-min Rain = 0
KHO1 191629Z 34011KT 08/M05 A3037 RMK A01 T00791052  RH  039%=      5-min Rain = 0
KHO1 191630Z 34012KT 08/M05 A3037 RMK A01 T00801048  RH  040%=      5-min Rain = 0
KHO1 191631Z 34012KT 08/M05 A3037 RMK A01 T00821049  RH  039%=      5-min Rain = 0
KHO1 191632Z 34011KT 08/M05 A3037 RMK A01 T00821049  RH  039%=      5-min Rain = 0
KHO1 191633Z 35009KT 08/M05 A3038 RMK A01 T00831048  RH  039%=      5-min Rain = 0
KHO1 191634Z 35012KT 08/M05 A3038 RMK A01 T00841049  RH  039%=      5-min Rain = 0
KHO1 191635Z 00012KT 08/M05 A3038 RMK A01 T00841052  RH  038%=      5-min Rain = 0
KHO1 191636Z 35012KT 08/M05 A3038 RMK A01 T00831053  RH  038%=      5-min Rain = 0
KHO1 191637Z 35011KT 08/M05 A3038 RMK A01 T00821051  RH  038%=      5-min Rain = 0
KHO1 191638Z 35010KT 08/M05 A3038 RMK A01 T00831051  RH  038%=      5-min Rain = 0
KHO1 191639Z 35009G14KT 08/M05 A3038 RMK A01 T00841050  RH  038%=      5-min Rain = 0
KHO1 191640Z 36013KT 08/M06 A3038 RMK A01 T00841055  RH  037%=      5-min Rain = 0
KHO1 191641Z 35011KT 08/M05 A3038 RMK A01 T00831054  RH  038%=      5-min Rain = 0
KHO1 191642Z 35011KT 08/M05 A3038 RMK A01 T00841052  RH  038%=      5-min Rain = 0
KHO1 191643Z 34010KT 09/M05 A3038 RMK A01 T00851052  RH  038%=      5-min Rain = 0
KHO1 191644Z 36011KT 09/M05 A3038 RMK A01 T00861054  RH  037%=      5-min Rain = 0
KHO1 191645Z 00011KT 09/M06 A3038 RMK A01 T00851055  RH  036%=      5-min Rain = 0
KHO1 191646Z 35010KT 08/M05 A3038 RMK A01 T00841053  RH  037%=      5-min Rain = 0
KHO1 191647Z 36013KT 08/M05 A3038 RMK A01 T00841054  RH  037%=      5-min Rain = 0
KHO1 191648Z 01012KT 08/M05 A3038 RMK A01 T00831054  RH  037%=      5-min Rain = 0
KHO1 191649Z 01010KT 08/M05 A3038 RMK A01 T00831054  RH  037%=      5-min Rain = 0
KHO1 191650Z 01009KT 08/M05 A3038 RMK A01 T00841051  RH  038%=      5-min Rain = 0
KHO1 191651Z 35011KT 09/M05 A3038 RMK A01 T00871052  RH  037%=      5-min Rain = 0
KHO1 191652Z 35011KT 09/M05 A3038 RMK A01 T00871053  RH  037%=      5-min Rain = 0
KHO1 191653Z 35011KT 09/M05 A3038 RMK A01 T00871053  RH  037%=      5-min Rain = 0
KHO1 191654Z 34010KT 09/M05 A3038 RMK A01 T00871052  RH  037%=      5-min Rain = 0
KHO1 191655Z 00008KT 09/M05 A3038 RMK A01 T00881051  RH  037%=      5-min Rain = 0
KHO1 191656Z 35011KT 09/M05 A3038 RMK A01 T00901051  RH  036%=      5-min Rain = 0
KHO1 191657Z 34011KT 09/M05 A3038 RMK A01 T00891054  RH  036%=      5-min Rain = 0
KHO1 191658Z 35010KT 09/M05 A3038 RMK A01 T00881052  RH  037%=      5-min Rain = 0
KHO1 191659Z 00011KT 09/M05 A3038 RMK A01 T00871053  RH  037%=      5-min Rain = 0
KHO1 191700Z 36011KT 09/M05 A3038 RMK A01 T00871052  RH  037%=      5-min Rain = 0
KHO1 191701Z 01013KT 09/M06 A3038 RMK A01 T00871055  RH  036%=      5-min Rain = 0
KHO1 191702Z 00009KT 09/M05 A3038 RMK A01 T00871053  RH  037%=      5-min Rain = 0
KHO1 191703Z 00009KT 09/M05 A3038 RMK A01 T00881053  RH  036%=      5-min Rain = 0
KHO1 191704Z 00010KT 09/M05 A3038 RMK A01 T00881052  RH  037%=      5-min Rain = 0
KHO1 191705Z 36009KT 09/M05 A3038 RMK A01 T00891052  RH  037%=      5-min Rain = 0
KHO1 191706Z 35010KT 09/M05 A3038 RMK A01 T00911052  RH  036%=      5-min Rain = 0
KHO1 191707Z 33009KT 09/M05 A3038 RMK A01 T00911053  RH  036%=      5-min Rain = 0
KHO1 191708Z 33009KT 09/M05 A3038 RMK A01 T00911053  RH  036%=      5-min Rain = 0
KHO1 191709Z 34006KT 09/M05 A3038 RMK A01 T00901054  RH  036%=      5-min Rain = 0
KHO1 191710Z 35007KT 09/M05 A3038 RMK A01 T00911051  RH  036%=      5-min Rain = 0
KHO1 191711Z 01010KT 09/M05 A3038 RMK A01 T00921053  RH  036%=      5-min Rain = 0
KHO1 191712Z 36010KT 09/M05 A3038 RMK A01 T00931054  RH  035%=      5-min Rain = 0
KHO1 191713Z 34008KT 09/M05 A3038 RMK A01 T00931054  RH  035%=      5-min Rain = 0
KHO1 191714Z 33007KT 09/M05 A3038 RMK A01 T00941054  RH  035%=      5-min Rain = 0
KHO1 191715Z 33008KT 10/M06 A3038 RMK A01 T00951055  RH  034%=      5-min Rain = 0
KHO1 191716Z 32008KT 09/M06 A3038 RMK A01 T00931057  RH  034%=      5-min Rain = 0
KHO1 191717Z 34008KT 09/M06 A3038 RMK A01 T00911055  RH  035%=      5-min Rain = 0
KHO1 191718Z 33006KT 09/M05 A3038 RMK A01 T00921053  RH  035%=      5-min Rain = 0
KHO1 191719Z 34008KT 09/M05 A3038 RMK A01 T00921054  RH  035%=      5-min Rain = 0
KHO1 191720Z 35008KT 09/M05 A3038 RMK A01 T00911054  RH  035%=      5-min Rain = 0
KHO1 191721Z 00010KT 09/M05 A3038 RMK A01 T00911054  RH  035%=      5-min Rain = 0
KHO1 191722Z 01008KT 09/M05 A3038 RMK A01 T00921052  RH  036%=      5-min Rain = 0
KHO1 191723Z 01008KT 09/M05 A3038 RMK A01 T00941054  RH  035%=      5-min Rain = 0
KHO1 191724Z 02009KT 10/M06 A3038 RMK A01 T00951055  RH  034%=      5-min Rain = 0
KHO1 191725Z 00009KT 09/M06 A3038 RMK A01 T00941056  RH  034%=      5-min Rain = 0
KHO1 191726Z 35007KT 09/M06 A3038 RMK A01 T00931058  RH  034%=      5-min Rain = 0
KHO1 191727Z 35006G11KT 09/M05 A3038 RMK A01 T00921054  RH  035%=      5-min Rain = 0
KHO1 191728Z 01011KT 09/M06 A3038 RMK A01 T00941055  RH  034%=      5-min Rain = 0
KHO1 191729Z 01009KT 09/M06 A3038 RMK A01 T00941056  RH  034%=      5-min Rain = 0
KHO1 191730Z 00008KT 10/M05 A3038 RMK A01 T00951054  RH  034%=      5-min Rain = 0
KHO1 191731Z 34007KT 10/M06 A3038 RMK A01 T00951056  RH  034%=      5-min Rain = 0
KHO1 191732Z 36007KT 10/M06 A3038 RMK A01 T00951055  RH  034%=      5-min Rain = 0
KHO1 191733Z 01004KT 09/M06 A3038 RMK A01 T00941058  RH  034%=      5-min Rain = 0
KHO1 191734Z 34004KT 09/M06 A3038 RMK A01 T00941055  RH  034%=      5-min Rain = 0
KHO1 191735Z 32005KT 10/M06 A3038 RMK A01 T00951055  RH  034%=      5-min Rain = 0
KHO1 191736Z 34006KT 10/M06 A3038 RMK A01 T00971055  RH  034%=      5-min Rain = 0
KHO1 191737Z 34006KT 10/M06 A3038 RMK A01 T00981056  RH  033%=      5-min Rain = 0
KHO1 191738Z 35006KT 10/M05 A3038 RMK A01 T00991054  RH  034%=      5-min Rain = 0
KHO1 191739Z 35007KT 10/M06 A3038 RMK A01 T00971056  RH  033%=      5-min Rain = 0
KHO1 191740Z 36008KT 10/M06 A3038 RMK A01 T00971056  RH  034%=      5-min Rain = 0
KHO1 191741Z 36007KT 10/M05 A3038 RMK A01 T00971054  RH  034%=      5-min Rain = 0
KHO1 191742Z 35009KT 10/M06 A3038 RMK A01 T01001057  RH  033%=      5-min Rain = 0
KHO1 191743Z 36008KT 10/M06 A3038 RMK A01 T01001056  RH  033%=      5-min Rain = 0
KHO1 191744Z 35007KT 10/M06 A3038 RMK A01 T01001056  RH  033%=      5-min Rain = 0
KHO1 191745Z 00006KT 10/M06 A3038 RMK A01 T01011057  RH  032%=      5-min Rain = 0
KHO1 191746Z 35006KT 10/M06 A3038 RMK A01 T00991059  RH  032%=      5-min Rain = 0
KHO1 191747Z 34005KT 10/M06 A3038 RMK A01 T00981057  RH  033%=      5-min Rain = 0
KHO1 191748Z 34006KT 10/M06 A3038 RMK A01 T01001056  RH  033%=      5-min Rain = 0
KHO1 191749Z 35009KT 10/M06 A3038 RMK A01 T01001058  RH  032%=      5-min Rain = 0
KHO1 191750Z 35008KT 10/M06 A3038 RMK A01 T00991059  RH  032%=      5-min Rain = 0
KHO1 191751Z 35006KT 10/M06 A3038 RMK A01 T00981059  RH  032%=      5-min Rain = 0
KHO1 191752Z 35006KT 10/M06 A3038 RMK A01 T00981059  RH  032%=      5-min Rain = 0
KHO1 191753Z 34006KT 10/M06 A3038 RMK A01 T00991056  RH  033%=      5-min Rain = 0
KHO1 191754Z 34005KT 10/M06 A3038 RMK A01 T01021055  RH  033%=      5-min Rain = 0
KHO1 191755Z 34004KT 11/M05 A3038 RMK A01 T01051054  RH  032%=      5-min Rain = 0
KHO1 191756Z 33008KT 11/M06 A3038 RMK A01 T01061055  RH  032%=      5-min Rain = 0
KHO1 191757Z 32007KT 11/M06 A3038 RMK A01 T01061057  RH  031%=      5-min Rain = 0
KHO1 191758Z 32006KT 11/M06 A3038 RMK A01 T01051056  RH  032%=      5-min Rain = 0
KHO1 191759Z 29009KT 11/M06 A3038 RMK A01 T01061056  RH  032%=      5-min Rain = 0
KHO1 191800Z 28009KT 10/M06 A3038 RMK A01 T01041058  RH  031%=      5-min Rain = 0
KHO1 191801Z 29009KT 10/M06 A3038 RMK A01 T01041057  RH  032%=      5-min Rain = 0
KHO1 191802Z 30008KT 10/M06 A3038 RMK A01 T01041059  RH  031%=      5-min Rain = 0
KHO1 191803Z 30007KT 10/M06 A3038 RMK A01 T01031060  RH  031%=      5-min Rain = 0
KHO1 191804Z 30005KT 10/M06 A3038 RMK A01 T01031059  RH  032%=      5-min Rain = 0
KHO1 191805Z 30005KT 10/M06 A3038 RMK A01 T01021058  RH  032%=      5-min Rain = 0
KHO1 191806Z 31003KT 10/M06 A3038 RMK A01 T01041059  RH  031%=      5-min Rain = 0
KHO1 191807Z 30006KT 10/M06 A3038 RMK A01 T01041058  RH  032%=      5-min Rain = 0
KHO1 191808Z 29007KT 10/M06 A3038 RMK A01 T01041057  RH  032%=      5-min Rain = 0
KHO1 191809Z 33006KT 10/M06 A3038 RMK A01 T01041058  RH  032%=      5-min Rain = 0
KHO1 191810Z 32007KT 10/M06 A3038 RMK A01 T01041058  RH  032%=      5-min Rain = 0
KHO1 191811Z 33006KT 10/M06 A3037 RMK A01 T01041055  RH  032%=      5-min Rain = 0
KHO1 191812Z 34006KT 11/M06 A3037 RMK A01 T01051056  RH  032%=      5-min Rain = 0
KHO1 191813Z 36007KT 10/M06 A3037 RMK A01 T01041058  RH  032%=      5-min Rain = 0
KHO1 191814Z 34006KT 10/M06 A3037 RMK A01 T01031055  RH  032%=      5-min Rain = 0
KHO1 191815Z 34007KT 10/M06 A3037 RMK A01 T01041055  RH  032%=      5-min Rain = 0
KHO1 191816Z 31005KT 11/M06 A3037 RMK A01 T01051055  RH  032%=      5-min Rain = 0
KHO1 191817Z 28006KT 11/M06 A3037 RMK A01 T01051056  RH  032%=      5-min Rain = 0
KHO1 191818Z 28007KT 11/M05 A3037 RMK A01 T01071052  RH  032%=      5-min Rain = 0
KHO1 191819Z 30008KT 11/M06 A3037 RMK A01 T01071055  RH  031%=      5-min Rain = 0
KHO1 191820Z 30005KT 11/M06 A3037 RMK A01 T01061056  RH  031%=      5-min Rain = 0
KHO1 191821Z 30008KT 11/M06 A3037 RMK A01 T01071055  RH  032%=      5-min Rain = 0
KHO1 191822Z 32005KT 11/M06 A3037 RMK A01 T01071057  RH  031%=      5-min Rain = 0
KHO1 191823Z 31008KT 11/M06 A3037 RMK A01 T01071058  RH  031%=      5-min Rain = 0
KHO1 191824Z 32009KT 11/M06 A3037 RMK A01 T01071062  RH  030%=      5-min Rain = 0
KHO1 191825Z 30007KT 11/M06 A3037 RMK A01 T01061060  RH  031%=      5-min Rain = 0
KHO1 191826Z 31006KT 11/M06 A3037 RMK A01 T01081058  RH  031%=      5-min Rain = 0
KHO1 191827Z 32006KT 11/M06 A3037 RMK A01 T01091057  RH  031%=      5-min Rain = 0
KHO1 191828Z 32008KT 11/M06 A3037 RMK A01 T01101058  RH  030%=      5-min Rain = 0
KHO1 191829Z 29009KT 11/M06 A3037 RMK A01 T01091060  RH  030%=      5-min Rain = 0
KHO1 191830Z 28013KT 11/M06 A3037 RMK A01 T01101061  RH  030%=      5-min Rain = 0
KHO1 191831Z 29010KT 11/M06 A3037 RMK A01 T01101060  RH  030%=      5-min Rain = 0
KHO1 191832Z 30009KT 11/M06 A3037 RMK A01 T01091061  RH  030%=      5-min Rain = 0
KHO1 191833Z 30007KT 11/M06 A3036 RMK A01 T01081060  RH  030%=      5-min Rain = 0
KHO1 191834Z 27006KT 11/M06 A3036 RMK A01 T01091059  RH  030%=      5-min Rain = 0
KHO1 191835Z 26005KT 11/M06 A3036 RMK A01 T01111058  RH  030%=      5-min Rain = 0
KHO1 191836Z 28009KT 11/M06 A3036 RMK A01 T01121060  RH  029%=      5-min Rain = 0
KHO1 191837Z 30009KT 11/M06 A3036 RMK A01 T01121061  RH  029%=      5-min Rain = 0
KHO1 191838Z 29010KT 11/M06 A3036 RMK A01 T01111062  RH  029%=      5-min Rain = 0
KHO1 191839Z 31012KT 11/M06 A3036 RMK A01 T01091064  RH  029%=      5-min Rain = 0
KHO1 191840Z 31007KT 11/M06 A3036 RMK A01 T01091060  RH  030%=      5-min Rain = 0
KHO1 191841Z 30007KT 11/M06 A3036 RMK A01 T01121060  RH  030%=      5-min Rain = 0
KHO1 191842Z 31010KT 11/M06 A3036 RMK A01 T01141060  RH  029%=      5-min Rain = 0
KHO1 191843Z 30010KT 11/M07 A3036 RMK A01 T01141066  RH  028%=      5-min Rain = 0
KHO1 191844Z 30010KT 11/M07 A3036 RMK A01 T01121068  RH  028%=      5-min Rain = 0
KHO1 191845Z 30010KT 11/M07 A3036 RMK A01 T01101069  RH  028%=      5-min Rain = 0
KHO1 191846Z 30010KT 11/M07 A3035 RMK A01 T01091068  RH  028%=      5-min Rain = 0
KHO1 191847Z 31010KT 11/M07 A3035 RMK A01 T01111067  RH  028%=      5-min Rain = 0
KHO1 191848Z 31009KT 11/M07 A3035 RMK A01 T01131065  RH  028%=      5-min Rain = 0
KHO1 191849Z 30010KT 12/M07 A3035 RMK A01 T01151066  RH  027%=      5-min Rain = 0
KHO1 191850Z 29012KT 12/M07 A3035 RMK A01 T01151071  RH  026%=      5-min Rain = 0
KHO1 191851Z 29011KT 11/M07 A3035 RMK A01 T01131072  RH  027%=      5-min Rain = 0
KHO1 191852Z 30010KT 11/M07 A3035 RMK A01 T01121071  RH  027%=      5-min Rain = 0
KHO1 191853Z 34007KT 11/M07 A3035 RMK A01 T01131069  RH  027%=      5-min Rain = 0
KHO1 191854Z 34008KT 11/M06 A3035 RMK A01 T01131063  RH  029%=      5-min Rain = 0
KHO1 191855Z 31010KT 12/M07 A3035 RMK A01 T01151065  RH  028%=      5-min Rain = 0
KHO1 191856Z 29012KT 12/M07 A3035 RMK A01 T01161070  RH  027%=      5-min Rain = 0
KHO1 191857Z 29011KT 12/M07 A3035 RMK A01 T01151070  RH  027%=      5-min Rain = 0
KHO1 191858Z 30011KT 11/M07 A3035 RMK A01 T01141072  RH  027%=      5-min Rain = 0
KHO1 191859Z 30008KT 11/M07 A3035 RMK A01 T01121070  RH  027%=      5-min Rain = 0
KHO1 191900Z 29005KT 11/M07 A3035 RMK A01 T01131068  RH  027%=      5-min Rain = 0
KHO1 191901Z 29007KT 11/M07 A3035 RMK A01 T01141070  RH  027%=      5-min Rain = 0
KHO1 191902Z 30014KT 11/M07 A3035 RMK A01 T01141070  RH  027%=      5-min Rain = 0
KHO1 191903Z 30012KT 11/M07 A3035 RMK A01 T01141071  RH  027%=      5-min Rain = 0
KHO1 191904Z 30008KT 11/M07 A3035 RMK A01 T01141071  RH  027%=      5-min Rain = 0
KHO1 191905Z 30008KT 12/M07 A3035 RMK A01 T01171068  RH  027%=      5-min Rain = 0
KHO1 191906Z 30010KT 12/M07 A3035 RMK A01 T01181072  RH  026%=      5-min Rain = 0
KHO1 191907Z 32009KT 12/M07 A3035 RMK A01 T01161069  RH  027%=      5-min Rain = 0
KHO1 191908Z 30012KT 12/M07 A3034 RMK A01 T01181069  RH  026%=      5-min Rain = 0
KHO1 191909Z 30012KT 12/M07 A3034 RMK A01 T01181071  RH  026%=      5-min Rain = 0
KHO1 191910Z 28011KT 12/M07 A3035 RMK A01 T01171073  RH  026%=      5-min Rain = 0
KHO1 191911Z 28011KT 12/M07 A3034 RMK A01 T01161072  RH  026%=      5-min Rain = 0
KHO1 191912Z 30011KT 12/M07 A3034 RMK A01 T01151072  RH  026%=      5-min Rain = 0
KHO1 191913Z 30010KT 11/M07 A3034 RMK A01 T01141073  RH  026%=      5-min Rain = 0
KHO1 191914Z 32013KT 11/M07 A3034 RMK A01 T01141073  RH  026%=      5-min Rain = 0
KHO1 191915Z 32010KT 12/M07 A3034 RMK A01 T01151073  RH  026%=      5-min Rain = 0
KHO1 191916Z 31012KT 12/M07 A3034 RMK A01 T01151072  RH  026%=      5-min Rain = 0
KHO1 191917Z 31013KT 12/M07 A3034 RMK A01 T01161071  RH  026%=      5-min Rain = 0
KHO1 191918Z 30013KT 12/M07 A3034 RMK A01 T01171073  RH  026%=      5-min Rain = 0
KHO1 191919Z 30011KT 12/M07 A3034 RMK A01 T01151074  RH  026%=      5-min Rain = 0
KHO1 191920Z 31009KT 12/M07 A3034 RMK A01 T01151070  RH  027%=      5-min Rain = 0
KHO1 191921Z 32010KT 12/M07 A3034 RMK A01 T01151073  RH  026%=      5-min Rain = 0
KHO1 191922Z 31010KT 12/M07 A3034 RMK A01 T01151071  RH  027%=      5-min Rain = 0
KHO1 191923Z 31008KT 12/M07 A3034 RMK A01 T01161072  RH  026%=      5-min Rain = 0
KHO1 191924Z 31006KT 12/M07 A3034 RMK A01 T01151071  RH  026%=      5-min Rain = 0
KHO1 191925Z 32008KT 12/M07 A3034 RMK A01 T01161071  RH  026%=      5-min Rain = 0
KHO1 191926Z 29008KT 12/M07 A3034 RMK A01 T01161070  RH  027%=      5-min Rain = 0
KHO1 191927Z 30009KT 12/M07 A3034 RMK A01 T01181068  RH  027%=      5-min Rain = 0
KHO1 191928Z 30007KT 12/M07 A3034 RMK A01 T01191068  RH  027%=      5-min Rain = 0
KHO1 191929Z 29011KT 12/M07 A3033 RMK A01 T01191070  RH  026%=      5-min Rain = 0
KHO1 191930Z 29010KT 12/M07 A3033 RMK A01 T01191068  RH  026%=      5-min Rain = 0
KHO1 191931Z 31012KT 12/M07 A3033 RMK A01 T01201070  RH  026%=      5-min Rain = 0
KHO1 191932Z 31010KT 12/M07 A3033 RMK A01 T01201070  RH  026%=      5-min Rain = 0
KHO1 191933Z 31008KT 12/M07 A3033 RMK A01 T01191070  RH  026%=      5-min Rain = 0
KHO1 191934Z 31007KT 12/M07 A3033 RMK A01 T01201069  RH  026%=      5-min Rain = 0
KHO1 191935Z 29008KT 12/M07 A3033 RMK A01 T01191070  RH  026%=      5-min Rain = 0
KHO1 191936Z 29008KT 12/M07 A3033 RMK A01 T01191068  RH  026%=      5-min Rain = 0
KHO1 191937Z 31009KT 12/M07 A3033 RMK A01 T01201067  RH  026%=      5-min Rain = 0
KHO1 191938Z 29006KT 12/M07 A3033 RMK A01 T01211068  RH  026%=      5-min Rain = 0
KHO1 191939Z 28006G12KT 12/M07 A3033 RMK A01 T01211068  RH  026%=      5-min Rain = 0
KHO1 191940Z 25007KT 12/M07 A3033 RMK A01 T01221069  RH  026%=      5-min Rain = 0
KHO1 191941Z 25008KT 12/M07 A3033 RMK A01 T01211068  RH  026%=      5-min Rain = 0
KHO1 191942Z 25010KT 12/M07 A3033 RMK A01 T01211069  RH  026%=      5-min Rain = 0
KHO1 191943Z 25010KT 12/M07 A3033 RMK A01 T01201070  RH  026%=      5-min Rain = 0
KHO1 191944Z 25008KT 12/M07 A3032 RMK A01 T01181071  RH  026%=      5-min Rain = 0
KHO1 191945Z 25007KT 12/M07 A3032 RMK A01 T01181070  RH  026%=      5-min Rain = 0
KHO1 191946Z 25007KT 12/M07 A3032 RMK A01 T01181071  RH  026%=      5-min Rain = 0
KHO1 191947Z 27005KT 12/M07 A3032 RMK A01 T01201067  RH  026%=      5-min Rain = 0
KHO1 191948Z 25007KT 12/M07 A3032 RMK A01 T01221067  RH  026%=      5-min Rain = 0
KHO1 191949Z 28009KT 12/M07 A3032 RMK A01 T01231070  RH  025%=      5-min Rain = 0
KHO1 191950Z 27011KT 12/M07 A3032 RMK A01 T01231073  RH  025%=      5-min Rain = 0
KHO1 191951Z 26009KT 12/M07 A3032 RMK A01 T01221074  RH  025%=      5-min Rain = 0
KHO1 191952Z 26009KT 12/M07 A3032 RMK A01 T01221072  RH  025%=      5-min Rain = 0
KHO1 191953Z 27009KT 12/M07 A3032 RMK A01 T01241070  RH  025%=      5-min Rain = 0
KHO1 191954Z 28010KT 12/M07 A3032 RMK A01 T01241074  RH  024%=      5-min Rain = 0
KHO1 191955Z 27006KT 12/M07 A3032 RMK A01 T01241069  RH  025%=      5-min Rain = 0
KHO1 191956Z 26007KT 13/M07 A3032 RMK A01 T01251071  RH  025%=      5-min Rain = 0
KHO1 191957Z 27009KT 13/M07 A3032 RMK A01 T01251072  RH  025%=      5-min Rain = 0
KHO1 191958Z 29007KT 12/M07 A3032 RMK A01 T01231073  RH  025%=      5-min Rain = 0
KHO1 191959Z 27007KT 12/M07 A3032 RMK A01 T01231072  RH  025%=      5-min Rain = 0
KHO1 192000Z 32009KT 12/M07 A3032 RMK A01 T01241072  RH  025%=      5-min Rain = 0
KHO1 192001Z 31009KT 12/M07 A3032 RMK A01 T01241072  RH  025%=      5-min Rain = 0
KHO1 192002Z 30008KT 12/M07 A3032 RMK A01 T01221072  RH  025%=      5-min Rain = 0
KHO1 192003Z 32008KT 12/M07 A3032 RMK A01 T01231071  RH  025%=      5-min Rain = 0
KHO1 192004Z 33009KT 12/M07 A3031 RMK A01 T01241071  RH  025%=      5-min Rain = 0
KHO1 192005Z 34009KT 13/M07 A3031 RMK A01 T01251073  RH  025%=      5-min Rain = 0
KHO1 192006Z 33008KT 13/M07 A3031 RMK A01 T01251070  RH  025%=      5-min Rain = 0
KHO1 192007Z 27008KT 13/M07 A3031 RMK A01 T01281071  RH  024%=      5-min Rain = 0
KHO1 192008Z 27007KT 13/M08 A3031 RMK A01 T01251075  RH  024%=      5-min Rain = 0
KHO1 192009Z 28008KT 12/M07 A3031 RMK A01 T01241074  RH  024%=      5-min Rain = 0
KHO1 192010Z 29005KT 12/M07 A3031 RMK A01 T01241073  RH  025%=      5-min Rain = 0
KHO1 192011Z 30010KT 13/M07 A3031 RMK A01 T01251072  RH  025%=      5-min Rain = 0
KHO1 192012Z 29010KT 12/M07 A3031 RMK A01 T01231073  RH  025%=      5-min Rain = 0
KHO1 192013Z 29008KT 12/M07 A3031 RMK A01 T01231070  RH  025%=      5-min Rain = 0
KHO1 192014Z 30009G14KT 12/M07 A3031 RMK A01 T01241070  RH  025%=      5-min Rain = 0
KHO1 192015Z 30011KT 13/M07 A3031 RMK A01 T01251071  RH  025%=      5-min Rain = 0
KHO1 192016Z 29010KT 12/M07 A3031 RMK A01 T01241074  RH  024%=      5-min Rain = 0
KHO1 192017Z 30009KT 12/M07 A3031 RMK A01 T01231074  RH  025%=      5-min Rain = 0
KHO1 192018Z 29010KT 12/M07 A3031 RMK A01 T01221071  RH  025%=      5-min Rain = 0
KHO1 192019Z 27008KT 12/M07 A3031 RMK A01 T01211073  RH  025%=      5-min Rain = 0
KHO1 192020Z 28006KT 12/M07 A3031 RMK A01 T01201072  RH  025%=      5-min Rain = 0
KHO1 192021Z 25008KT 12/M07 A3031 RMK A01 T01211071  RH  026%=      5-min Rain = 0
KHO1 192022Z 25011KT 12/M07 A3031 RMK A01 T01221069  RH  026%=      5-min Rain = 0
KHO1 192023Z 29010KT 12/M07 A3031 RMK A01 T01231069  RH  025%=      5-min Rain = 0
KHO1 192024Z 29012KT 12/M07 A3031 RMK A01 T01231073  RH  025%=      5-min Rain = 0
KHO1 192025Z 30010KT 12/M07 A3031 RMK A01 T01221072  RH  025%=      5-min Rain = 0
KHO1 192026Z 30010KT 12/M07 A3031 RMK A01 T01231072  RH  025%=      5-min Rain = 0
KHO1 192027Z 31008KT 12/M07 A3031 RMK A01 T01241071  RH  025%=      5-min Rain = 0
KHO1 192028Z 30008KT 12/M07 A3031 RMK A01 T01241070  RH  025%=      5-min Rain = 0
KHO1 192029Z 28009KT 12/M07 A3031 RMK A01 T01241070  RH  025%=      5-min Rain = 0
KHO1 192030Z 27008KT 12/M07 A3031 RMK A01 T01241072  RH  025%=      5-min Rain = 0
KHO1 192031Z 25009KT 12/M07 A3031 RMK A01 T01231070  RH  025%=      5-min Rain = 0
KHO1 192032Z 27007KT 12/M07 A303 RMK A01 T01241069  RH  025%=      5-min Rain = 0
KHO1 192033Z 29010KT 13/M07 A303 RMK A01 T01251069  RH  025%=      5-min Rain = 0
KHO1 192034Z 30009KT 13/M07 A303 RMK A01 T01281070  RH  025%=      5-min Rain = 0
KHO1 192035Z 30009G15KT 13/M07 A303 RMK A01 T01271070  RH  025%=      5-min Rain = 0
KHO1 192036Z 29011KT 13/M07 A303 RMK A01 T01251072  RH  025%=      5-min Rain = 0
KHO1 192037Z 30009KT 12/M07 A303 RMK A01 T01241070  RH  025%=      5-min Rain = 0
KHO1 192038Z 29010KT 13/M07 A303 RMK A01 T01251072  RH  025%=      5-min Rain = 0
KHO1 192039Z 29011KT 12/M07 A303 RMK A01 T01241074  RH  024%=      5-min Rain = 0
KHO1 192040Z 29008KT 12/M07 A303 RMK A01 T01231074  RH  024%=      5-min Rain = 0
KHO1 192041Z 27009KT 12/M07 A303 RMK A01 T01231073  RH  025%=      5-min Rain = 0
KHO1 192042Z 27009KT 12/M07 A303 RMK A01 T01221074  RH  025%=      5-min Rain = 0
KHO1 192043Z 28005KT 12/M08 A303 RMK A01 T01211076  RH  024%=      5-min Rain = 0
KHO1 192044Z 26007KT 12/M07 A303 RMK A01 T01211073  RH  025%=      5-min Rain = 0
KHO1 192045Z 26007KT 12/M07 A303 RMK A01 T01231071  RH  025%=      5-min Rain = 0
KHO1 192046Z 26006KT 13/M07 A303 RMK A01 T01251074  RH  024%=      5-min Rain = 0
KHO1 192047Z 27006KT 12/M08 A303 RMK A01 T01231075  RH  024%=      5-min Rain = 0
KHO1 192048Z 27008KT 12/M07 A303 RMK A01 T01231073  RH  025%=      5-min Rain = 0
KHO1 192049Z 28011KT 13/M07 A303 RMK A01 T01251072  RH  025%=      5-min Rain = 0
KHO1 192050Z 28012KT 13/M07 A303 RMK A01 T01251074  RH  024%=      5-min Rain = 0
KHO1 192051Z 29010KT 12/M08 A303 RMK A01 T01231076  RH  024%=      5-min Rain = 0
KHO1 192052Z 29011KT 12/M08 A303 RMK A01 T01211076  RH  024%=      5-min Rain = 0
KHO1 192053Z 28009KT 12/M08 A303 RMK A01 T01211075  RH  025%=      5-min Rain = 0
KHO1 192054Z 28010KT 12/M08 A303 RMK A01 T01221076  RH  024%=      5-min Rain = 0
KHO1 192055Z 27008KT 12/M08 A303 RMK A01 T01221075  RH  025%=      5-min Rain = 0
KHO1 192056Z 27006KT 12/M08 A303 RMK A01 T01231075  RH  024%=      5-min Rain = 0
KHO1 192057Z 27008KT 12/M07 A303 RMK A01 T01241074  RH  024%=      5-min Rain = 0
KHO1 192058Z 27011KT 12/M08 A303 RMK A01 T01241076  RH  024%=      5-min Rain = 0
KHO1 192059Z 25007KT 12/M08 A3029 RMK A01 T01231076  RH  024%=      5-min Rain = 0
KHO1 192100Z 24006KT 12/M07 A3029 RMK A01 T01241074  RH  025%=      5-min Rain = 0
KHO1 192101Z 25007KT 13/M08 A3029 RMK A01 T01251075  RH  024%=      5-min Rain = 0
KHO1 192102Z 28009KT 13/M07 A3029 RMK A01 T01271073  RH  024%=      5-min Rain = 0
KHO1 192103Z 27007KT 13/M08 A3029 RMK A01 T01251078  RH  023%=      5-min Rain = 0
KHO1 192104Z 27011G18KT 13/M08 A3029 RMK A01 T01251076  RH  024%=      5-min Rain = 0
KHO1 192105Z 31009KT 13/M08 A3029 RMK A01 T01271075  RH  024%=      5-min Rain = 0
KHO1 192106Z 30010KT 13/M08 A3029 RMK A01 T01261078  RH  023%=      5-min Rain = 0
KHO1 192107Z 31006KT 13/M08 A3029 RMK A01 T01261075  RH  024%=      5-min Rain = 0
KHO1 192108Z 30007KT 13/M08 A3029 RMK A01 T01281076  RH  023%=      5-min Rain = 0
KHO1 192109Z 28005KT 13/M08 A3029 RMK A01 T01271079  RH  023%=      5-min Rain = 0
KHO1 192110Z 26004KT 13/M08 A3029 RMK A01 T01261076  RH  024%=      5-min Rain = 0
KHO1 192111Z 26006KT 13/M08 A3029 RMK A01 T01271077  RH  024%=      5-min Rain = 0
KHO1 192112Z 29008KT 13/M08 A3029 RMK A01 T01281076  RH  024%=      5-min Rain = 0
KHO1 192113Z 29007KT 13/M08 A3029 RMK A01 T01281077  RH  023%=      5-min Rain = 0
KHO1 192114Z 30007KT 13/M08 A3029 RMK A01 T01271077  RH  023%=      5-min Rain = 0
KHO1 192115Z 28009KT 13/M08 A3029 RMK A01 T01271077  RH  023%=      5-min Rain = 0
KHO1 192116Z 29007KT 13/M08 A3029 RMK A01 T01251079  RH  023%=      5-min Rain = 0
KHO1 192117Z 27007KT 12/M08 A3029 RMK A01 T01241079  RH  023%=      5-min Rain = 0
KHO1 192118Z 25008KT 12/M08 A3029 RMK A01 T01231080  RH  023%=      5-min Rain = 0
KHO1 192119Z 27010KT 12/M08 A3029 RMK A01 T01241078  RH  024%=      5-min Rain = 0
KHO1 192120Z 29008KT 13/M08 A3029 RMK A01 T01251075  RH  024%=      5-min Rain = 0
KHO1 192121Z 26008KT 13/M07 A3029 RMK A01 T01251074  RH  024%=      5-min Rain = 0
KHO1 192122Z 26007KT 13/M08 A3029 RMK A01 T01271075  RH  024%=      5-min Rain = 0
KHO1 192123Z 26008KT 13/M08 A3029 RMK A01 T01261076  RH  024%=      5-min Rain = 0
KHO1 192124Z 27006KT 13/M08 A3029 RMK A01 T01251077  RH  024%=      5-min Rain = 0
KHO1 192125Z 30009KT 13/M08 A3029 RMK A01 T01261078  RH  023%=      5-min Rain = 0
KHO1 192126Z 31009KT 13/M08 A3028 RMK A01 T01261079  RH  023%=      5-min Rain = 0
KHO1 192127Z 31009KT 13/M08 A3028 RMK A01 T01271076  RH  024%=      5-min Rain = 0
KHO1 192128Z 32008KT 13/M08 A3028 RMK A01 T01281079  RH  023%=      5-min Rain = 0
KHO1 192129Z 32006KT 13/M08 A3029 RMK A01 T01261083  RH  022%=      5-min Rain = 0
KHO1 192130Z 31007KT 13/M08 A3029 RMK A01 T01251081  RH  023%=      5-min Rain = 0
KHO1 192131Z 31008KT 13/M08 A3029 RMK A01 T01261079  RH  023%=      5-min Rain = 0
KHO1 192132Z 31007KT 13/M08 A3029 RMK A01 T01291082  RH  022%=      5-min Rain = 0
KHO1 192133Z 31007KT 13/M08 A3029 RMK A01 T01291082  RH  022%=      5-min Rain = 0
KHO1 192134Z 31008KT 13/M08 A3029 RMK A01 T01291083  RH  022%=      5-min Rain = 0
KHO1 192135Z 30008KT 13/M08 A3029 RMK A01 T01301081  RH  022%=      5-min Rain = 0
KHO1 192136Z 28007KT 13/M08 A3029 RMK A01 T01321080  RH  022%=      5-min Rain = 0
KHO1 192137Z 28007KT 13/M08 A3029 RMK A01 T01321082  RH  022%=      5-min Rain = 0
KHO1 192138Z 29007KT 13/M08 A3029 RMK A01 T01291083  RH  022%=      5-min Rain = 0
KHO1 192139Z 29007KT 13/M08 A3029 RMK A01 T01281081  RH  023%=      5-min Rain = 0
KHO1 192140Z 28010KT 13/M08 A3029 RMK A01 T01291081  RH  022%=      5-min Rain = 0
KHO1 192141Z 28008KT 13/M08 A3029 RMK A01 T01301081  RH  022%=      5-min Rain = 0
KHO1 192142Z 29009KT 13/M08 A3029 RMK A01 T01301082  RH  022%=      5-min Rain = 0
KHO1 192143Z 29008KT 13/M08 A3028 RMK A01 T01301084  RH  022%=      5-min Rain = 0
KHO1 192144Z 30011KT 13/M09 A3029 RMK A01 T01291085  RH  022%=      5-min Rain = 0
KHO1 192145Z 30008KT 13/M09 A3029 RMK A01 T01281085  RH  022%=      5-min Rain = 0
KHO1 192146Z 30008KT 13/M08 A3029 RMK A01 T01281082  RH  022%=      5-min Rain = 0
KHO1 192147Z 32008KT 13/M08 A3029 RMK A01 T01281084  RH  022%=      5-min Rain = 0
KHO1 192148Z 32006KT 13/M08 A3029 RMK A01 T01271084  RH  022%=      5-min Rain = 0
KHO1 192149Z 30007KT 13/M08 A3029 RMK A01 T01271084  RH  022%=      5-min Rain = 0
KHO1 192150Z 30009KT 13/M09 A3029 RMK A01 T01261087  RH  022%=      5-min Rain = 0
KHO1 192151Z 29006KT 13/M09 A3029 RMK A01 T01261087  RH  022%=      5-min Rain = 0
KHO1 192152Z 28007KT 13/M09 A3029 RMK A01 T01271086  RH  022%=      5-min Rain = 0
KHO1 192153Z 29005KT 13/M09 A3029 RMK A01 T01271086  RH  022%=      5-min Rain = 0
KHO1 192154Z 30006KT 13/M09 A3028 RMK A01 T01281086  RH  022%=      5-min Rain = 0
KHO1 192155Z 30010KT 13/M09 A3029 RMK A01 T01281086  RH  022%=      5-min Rain = 0
KHO1 192156Z 29007KT 13/M09 A3028 RMK A01 T01281086  RH  022%=      5-min Rain = 0
KHO1 192157Z 29006KT 13/M09 A3028 RMK A01 T01291088  RH  021%=      5-min Rain = 0
KHO1 192158Z 29006KT 13/M09 A3028 RMK A01 T01281086  RH  022%=      5-min Rain = 0
KHO1 192159Z 30006KT 13/M09 A3028 RMK A01 T01301087  RH  021%=      5-min Rain = 0
KHO1 192200Z 30006KT 13/M09 A3028 RMK A01 T01301089  RH  021%=      5-min Rain = 0
KHO1 192201Z 31005KT 13/M09 A3028 RMK A01 T01301087  RH  021%=      5-min Rain = 0
KHO1 192202Z 31003KT 13/M09 A3028 RMK A01 T01291088  RH  021%=      5-min Rain = 0
KHO1 192203Z 30004KT 13/M09 A3028 RMK A01 T01301085  RH  022%=      5-min Rain = 0
KHO1 192204Z 27008KT 13/M09 A3028 RMK A01 T01311085  RH  021%=      5-min Rain = 0
KHO1 192205Z 30011KT 13/M08 A3028 RMK A01 T01301084  RH  022%=      5-min Rain = 0
KHO1 192206Z 30008KT 13/M08 A3028 RMK A01 T01291084  RH  022%=      5-min Rain = 0
KHO1 192207Z 30007KT 13/M08 A3028 RMK A01 T01301083  RH  022%=      5-min Rain = 0
KHO1 192208Z 31006KT 13/M08 A3028 RMK A01 T01321082  RH  022%=      5-min Rain = 0
KHO1 192209Z 30009KT 13/M09 A3028 RMK A01 T01321085  RH  021%=      5-min Rain = 0
KHO1 192210Z 29010KT 13/M08 A3028 RMK A01 T01301084  RH  022%=      5-min Rain = 0
KHO1 192211Z 29011KT 13/M08 A3028 RMK A01 T01301084  RH  022%=      5-min Rain = 0
KHO1 192212Z 29009KT 13/M09 A3028 RMK A01 T01281086  RH  022%=      5-min Rain = 0
KHO1 192213Z 30008KT 13/M09 A3028 RMK A01 T01261087  RH  022%=      5-min Rain = 0
KHO1 192214Z 30008KT 13/M09 A3028 RMK A01 T01261086  RH  022%=      5-min Rain = 0
KHO1 192215Z 28005KT 13/M09 A3028 RMK A01 T01261085  RH  022%=      5-min Rain = 0
KHO1 192216Z 27005KT 13/M09 A3028 RMK A01 T01271086  RH  022%=      5-min Rain = 0
KHO1 192217Z 28005KT 13/M08 A3028 RMK A01 T01281084  RH  022%=      5-min Rain = 0
KHO1 192218Z 29007KT 13/M08 A3028 RMK A01 T01291084  RH  022%=      5-min Rain = 0
KHO1 192219Z 26009G14KT 13/M08 A3028 RMK A01 T01301083  RH  022%=      5-min Rain = 0
KHO1 192220Z 26011KT 13/M08 A3028 RMK A01 T01301083  RH  022%=      5-min Rain = 0
KHO1 192221Z 27009KT 13/M08 A3028 RMK A01 T01311083  RH  022%=      5-min Rain = 0
KHO1 192222Z 27012KT 13/M09 A3028 RMK A01 T01311086  RH  021%=      5-min Rain = 0
KHO1 192223Z 28009KT 13/M09 A3028 RMK A01 T01291085  RH  022%=      5-min Rain = 0
KHO1 192224Z 29011KT 13/M09 A3028 RMK A01 T01291085  RH  022%=      5-min Rain = 0
KHO1 192225Z 28009KT 13/M09 A3028 RMK A01 T01291085  RH  022%=      5-min Rain = 0
KHO1 192226Z 27008KT 13/M08 A3028 RMK A01 T01281083  RH  022%=      5-min Rain = 0
KHO1 192227Z 28006KT 13/M08 A3028 RMK A01 T01301081  RH  022%=      5-min Rain = 0
KHO1 192228Z 29005KT 13/M09 A3028 RMK A01 T01301085  RH  022%=      5-min Rain = 0
KHO1 192229Z 28005KT 13/M09 A3028 RMK A01 T01291085  RH  022%=      5-min Rain = 0
KHO1 192230Z 27008KT 13/M08 A3028 RMK A01 T01291084  RH  022%=      5-min Rain = 0
KHO1 192231Z 28011KT 13/M09 A3028 RMK A01 T01281085  RH  022%=      5-min Rain = 0
KHO1 192232Z 27007KT 13/M09 A3028 RMK A01 T01281085  RH  022%=      5-min Rain = 0
KHO1 192233Z 27007KT 13/M09 A3028 RMK A01 T01271086  RH  022%=      5-min Rain = 0
KHO1 192234Z 28008KT 13/M09 A3028 RMK A01 T01271085  RH  022%=      5-min Rain = 0
KHO1 192235Z 27006KT 13/M08 A3028 RMK A01 T01271084  RH  022%=      5-min Rain = 0
KHO1 192236Z 26006KT 13/M09 A3028 RMK A01 T01281085  RH  022%=      5-min Rain = 0
KHO1 192237Z 27007KT 13/M08 A3028 RMK A01 T01281084  RH  022%=      5-min Rain = 0
KHO1 192238Z 27010KT 13/M09 A3028 RMK A01 T01281086  RH  022%=      5-min Rain = 0
KHO1 192239Z 26007KT 13/M09 A3028 RMK A01 T01261086  RH  022%=      5-min Rain = 0
KHO1 192240Z 26008KT 13/M09 A3028 RMK A01 T01261086  RH  022%=      5-min Rain = 0
KHO1 192241Z 26009KT 13/M09 A3028 RMK A01 T01271087  RH  022%=      5-min Rain = 0
KHO1 192242Z 27008KT 13/M09 A3028 RMK A01 T01261087  RH  022%=      5-min Rain = 0
KHO1 192243Z 28008KT 13/M09 A3028 RMK A01 T01271086  RH  022%=      5-min Rain = 0
KHO1 192244Z 29008KT 13/M09 A3028 RMK A01 T01281089  RH  021%=      5-min Rain = 0
KHO1 192245Z 29008KT 13/M09 A3028 RMK A01 T01291089  RH  021%=      5-min Rain = 0
KHO1 192246Z 30008KT 13/M09 A3028 RMK A01 T01281088  RH  021%=      5-min Rain = 0
KHO1 192247Z 30008KT 13/M09 A3028 RMK A01 T01281088  RH  021%=      5-min Rain = 0
KHO1 192248Z 30009KT 13/M09 A3028 RMK A01 T01281088  RH  021%=      5-min Rain = 0
KHO1 192249Z 31009KT 13/M09 A3028 RMK A01 T01281088  RH  021%=      5-min Rain = 0
KHO1 192250Z 31008KT 13/M09 A3028 RMK A01 T01271088  RH  021%=      5-min Rain = 0
KHO1 192251Z 29006KT 13/M09 A3028 RMK A01 T01271085  RH  022%=      5-min Rain = 0
KHO1 192252Z 28007KT 13/M09 A3028 RMK A01 T01271089  RH  021%=      5-min Rain = 0
KHO1 192253Z 28005KT 13/M09 A3028 RMK A01 T01271087  RH  022%=      5-min Rain = 0
KHO1 192254Z 29008KT 13/M09 A3028 RMK A01 T01281087  RH  022%=      5-min Rain = 0
KHO1 192255Z 29007KT 13/M09 A3028 RMK A01 T01281088  RH  021%=      5-min Rain = 0
KHO1 192256Z 27007KT 13/M09 A3028 RMK A01 T01281088  RH  021%=      5-min Rain = 0
KHO1 192257Z 26007KT 13/M09 A3028 RMK A01 T01271089  RH  021%=      5-min Rain = 0
KHO1 192258Z 29007KT 13/M09 A3028 RMK A01 T01271088  RH  022%=      5-min Rain = 0
KHO1 192259Z 29007KT 13/M09 A3028 RMK A01 T01271090  RH  021%=      5-min Rain = 0
KHO1 192300Z 29006KT 13/M09 A3028 RMK A01 T01271088  RH  021%=      5-min Rain = 0
KHO1 192301Z 30007KT 13/M09 A3028 RMK A01 T01271088  RH  021%=      5-min Rain = 0
KHO1 192302Z 31008KT 13/M09 A3028 RMK A01 T01271088  RH  022%=      5-min Rain = 0
KHO1 192303Z 29006KT 13/M09 A3028 RMK A01 T01271087  RH  022%=      5-min Rain = 0
KHO1 192304Z 28007KT 13/M09 A3028 RMK A01 T01281085  RH  022%=      5-min Rain = 0
KHO1 192305Z 29006KT 13/M09 A3028 RMK A01 T01281089  RH  021%=      5-min Rain = 0
KHO1 192306Z 28005KT 13/M09 A3028 RMK A01 T01281088  RH  021%=      5-min Rain = 0
KHO1 192307Z 28008KT 13/M09 A3028 RMK A01 T01281094  RH  020%=      5-min Rain = 0
KHO1 192308Z 28009KT 13/M09 A3028 RMK A01 T01271094  RH  020%=      5-min Rain = 0
KHO1 192309Z 27008KT 13/M09 A3028 RMK A01 T01271092  RH  021%=      5-min Rain = 0
KHO1 192310Z 27008KT 13/M09 A3028 RMK A01 T01261090  RH  021%=      5-min Rain = 0
KHO1 192311Z 27007KT 13/M09 A3028 RMK A01 T01261089  RH  021%=      5-min Rain = 0
KHO1 192312Z 28009KT 13/M09 A3028 RMK A01 T01271091  RH  021%=      5-min Rain = 0
KHO1 192313Z 29010KT 13/M10 A3028 RMK A01 T01271095  RH  020%=      5-min Rain = 0
KHO1 192314Z 28008KT 13/M10 A3028 RMK A01 T01261096  RH  020%=      5-min Rain = 0
KHO1 192315Z 28007KT 13/M10 A3028 RMK A01 T01261095  RH  020%=      5-min Rain = 0
KHO1 192316Z 28007KT 13/M09 A3028 RMK A01 T01261094  RH  021%=      5-min Rain = 0
KHO1 192317Z 29007KT 13/M09 A3028 RMK A01 T01261093  RH  021%=      5-min Rain = 0
KHO1 192318Z 27006KT 13/M09 A3028 RMK A01 T01261091  RH  021%=      5-min Rain = 0
KHO1 192319Z 27006KT 13/M09 A3028 RMK A01 T01261090  RH  021%=      5-min Rain = 0
KHO1 192320Z 26007KT 13/M09 A3028 RMK A01 T01261093  RH  021%=      5-min Rain = 0
KHO1 192321Z 26007KT 13/M09 A3028 RMK A01 T01251094  RH  021%=      5-min Rain = 0
KHO1 192322Z 25006KT 13/M10 A3028 RMK A01 T01251095  RH  021%=      5-min Rain = 0
KHO1 192323Z 24007KT 13/M09 A3028 RMK A01 T01251092  RH  021%=      5-min Rain = 0
KHO1 192324Z 25007KT 13/M09 A3028 RMK A01 T01251094  RH  021%=      5-min Rain = 0
KHO1 192325Z 27008KT 13/M10 A3028 RMK A01 T01251097  RH  020%=      5-min Rain = 0
KHO1 192326Z 28009KT 13/M10 A3028 RMK A01 T01251102  RH  020%=      5-min Rain = 0
KHO1 192327Z 28008KT 12/M10 A3028 RMK A01 T01241102  RH  020%=      5-min Rain = 0
KHO1 192328Z 28007KT 12/M10 A3028 RMK A01 T01241103  RH  019%=      5-min Rain = 0
KHO1 192329Z 29005KT 12/M10 A3028 RMK A01 T01241101  RH  020%=      5-min Rain = 0
KHO1 192330Z 30005KT 13/M10 A3028 RMK A01 T01251101  RH  020%=      5-min Rain = 0
KHO1 192331Z 30005KT 13/M10 A3028 RMK A01 T01251102  RH  019%=      5-min Rain = 0
KHO1 192332Z 29005KT 13/M10 A3028 RMK A01 T01251102  RH  019%=      5-min Rain = 0
KHO1 192333Z 29004KT 13/M10 A3028 RMK A01 T01251100  RH  020%=      5-min Rain = 0
KHO1 192334Z 29004KT 13/M10 A3028 RMK A01 T01251100  RH  020%=      5-min Rain = 0
KHO1 192335Z 29004KT 13/M10 A3027 RMK A01 T01251101  RH  020%=      5-min Rain = 0
KHO1 192336Z 30005KT 13/M10 A3028 RMK A01 T01251100  RH  020%=      5-min Rain = 0
KHO1 192337Z 29005KT 13/M10 A3027 RMK A01 T01251102  RH  020%=      5-min Rain = 0
KHO1 192338Z 28006KT 12/M10 A3027 RMK A01 T01241098  RH  020%=      5-min Rain = 0
KHO1 192339Z 27006KT 12/M10 A3027 RMK A01 T01241096  RH  021%=      5-min Rain = 0
KHO1 192340Z 27006KT 12/M09 A3027 RMK A01 T01231094  RH  021%=      5-min Rain = 0
KHO1 192341Z 26006KT 12/M09 A3027 RMK A01 T01221093  RH  021%=      5-min Rain = 0
KHO1 192342Z 26006KT 12/M09 A3027 RMK A01 T01221093  RH  021%=      5-min Rain = 0
KHO1 192343Z 26006KT 12/M09 A3028 RMK A01 T01211092  RH  022%=      5-min Rain = 0
KHO1 192344Z 26007KT 12/M09 A3028 RMK A01 T01211093  RH  022%=      5-min Rain = 0
KHO1 192345Z 27006KT 12/M09 A3027 RMK A01 T01201094  RH  021%=      5-min Rain = 0
KHO1 192346Z 26005KT 12/M09 A3027 RMK A01 T01201092  RH  022%=      5-min Rain = 0
KHO1 192347Z 27005KT 12/M09 A3028 RMK A01 T01201092  RH  022%=      5-min Rain = 0
KHO1 192348Z 27005KT 12/M09 A3027 RMK A01 T01201093  RH  022%=      5-min Rain = 0
KHO1 192349Z 26005KT 12/M09 A3027 RMK A01 T01201093  RH  022%=      5-min Rain = 0
KHO1 192350Z 25006KT 12/M09 A3027 RMK A01 T01191092  RH  022%=      5-min Rain = 0
KHO1 192351Z 26006KT 12/M09 A3027 RMK A01 T01181092  RH  022%=      5-min Rain = 0
KHO1 192352Z 27006KT 12/M09 A3027 RMK A01 T01171091  RH  022%=      5-min Rain = 0
KHO1 192353Z 28007KT 12/M09 A3028 RMK A01 T01161091  RH  023%=      5-min Rain = 0
KHO1 192354Z 28006KT 12/M09 A3028 RMK A01 T01151090  RH  023%=      5-min Rain = 0
KHO1 192355Z 28005KT 12/M09 A3027 RMK A01 T01151090  RH  023%=      5-min Rain = 0
KHO1 192356Z 28005KT 11/M09 A3027 RMK A01 T01141088  RH  023%=      5-min Rain = 0
KHO1 192357Z 28004KT 11/M09 A3027 RMK A01 T01131087  RH  024%=      5-min Rain = 0
KHO1 192358Z 28004KT 11/M09 A3027 RMK A01 T01131088  RH  024%=      5-min Rain = 0
KHO1 192359Z 28004KT 11/M09 A3027 RMK A01 T01121089  RH  024%=      5-min Rain = 0
KHO1 200000Z 28004KT 11/M09 A3027 RMK A01 T01111088  RH  024%=      5-min Rain = 0
KHO1 200001Z 28004KT 11/M09 A3027 RMK A01 T01111087  RH  024%=      5-min Rain = 0
KHO1 200002Z 27004KT 11/M09 A3027 RMK A01 T01101087  RH  024%=      5-min Rain = 0
KHO1 200003Z 27004KT 11/M09 A3027 RMK A01 T01091087  RH  024%=      5-min Rain = 0
KHO1 200004Z 27004KT 11/M09 A3027 RMK A01 T01081087  RH  024%=      5-min Rain = 0
KHO1 200005Z 27005KT 11/M09 A3027 RMK A01 T01081087  RH  025%=      5-min Rain = 0
KHO1 200006Z 27004KT 11/M09 A3027 RMK A01 T01071086  RH  025%=      5-min Rain = 0
KHO1 200007Z 28004KT 11/M09 A3027 RMK A01 T01071086  RH  025%=      5-min Rain = 0
KHO1 200008Z 28004KT 11/M09 A3027 RMK A01 T01061085  RH  025%=      5-min Rain = 0
KHO1 200009Z 28004KT 11/M09 A3028 RMK A01 T01061086  RH  025%=      5-min Rain = 0
KHO1 200010Z 28004KT 11/M09 A3028 RMK A01 T01051086  RH  025%=      5-min Rain = 0
KHO1 200011Z 28003KT 10/M09 A3028 RMK A01 T01041085  RH  026%=      5-min Rain = 0
KHO1 200012Z 28003KT 10/M09 A3028 RMK A01 T01031085  RH  026%=      5-min Rain = 0
KHO1 200013Z 28003KT 10/M09 A3028 RMK A01 T01031085  RH  026%=      5-min Rain = 0
KHO1 200014Z 28003KT 10/M09 A3027 RMK A01 T01021085  RH  026%=      5-min Rain = 0
KHO1 200015Z 27003KT 10/M09 A3027 RMK A01 T01021086  RH  026%=      5-min Rain = 0
KHO1 200016Z 27003KT 10/M09 A3028 RMK A01 T01011087  RH  026%=      5-min Rain = 0
KHO1 200017Z 27003KT 10/M09 A3028 RMK A01 T01011087  RH  026%=      5-min Rain = 0
KHO1 200018Z 27002KT 10/M09 A3028 RMK A01 T01011087  RH  026%=      5-min Rain = 0
KHO1 200019Z 27002KT 10/M09 A3028 RMK A01 T01011087  RH  026%=      5-min Rain = 0
KHO1 200020Z 27002KT 10/M09 A3028 RMK A01 T01011087  RH  026%=      5-min Rain = 0
KHO1 200021Z 27002KT 10/M09 A3028 RMK A01 T01001086  RH  026%=      5-min Rain = 0
KHO1 200022Z 26002KT 10/M09 A3028 RMK A01 T00991087  RH  026%=      5-min Rain = 0
KHO1 200023Z 25002KT 10/M09 A3028 RMK A01 T00991087  RH  026%=      5-min Rain = 0
KHO1 200024Z 25002KT 10/M09 A3028 RMK A01 T00991086  RH  026%=      5-min Rain = 0
KHO1 200025Z 25002KT 10/M09 A3028 RMK A01 T00981085  RH  027%=      5-min Rain = 0
KHO1 200026Z 25001KT 10/M08 A3028 RMK A01 T00971084  RH  027%=      5-min Rain = 0
KHO1 200027Z 25001KT 10/M09 A3028 RMK A01 T00961085  RH  027%=      5-min Rain = 0
KHO1 200028Z 25001KT 09/M09 A3028 RMK A01 T00941085  RH  027%=      5-min Rain = 0
KHO1 200029Z 25001KT 09/M09 A3028 RMK A01 T00931086  RH  027%=      5-min Rain = 0
KHO1 200030Z 25002KT 09/M09 A3028 RMK A01 T00921086  RH  028%=      5-min Rain = 0
KHO1 200031Z 24002KT 09/M09 A3028 RMK A01 T00901085  RH  028%=      5-min Rain = 0
KHO1 200032Z 23003KT 09/M09 A3028 RMK A01 T00891085  RH  028%=      5-min Rain = 0
KHO1 200033Z 24003KT 09/M09 A3028 RMK A01 T00881085  RH  028%=      5-min Rain = 0
KHO1 200034Z 24004KT 09/M09 A3028 RMK A01 T00881085  RH  029%=      5-min Rain = 0
KHO1 200035Z 24004KT 09/M09 A3028 RMK A01 T00881085  RH  029%=      5-min Rain = 0
KHO1 200036Z 24004KT 09/M09 A3028 RMK A01 T00881085  RH  029%=      5-min Rain = 0
KHO1 200037Z 24004KT 09/M09 A3028 RMK A01 T00881085  RH  029%=      5-min Rain = 0
KHO1 200038Z 24004KT 09/M09 A3028 RMK A01 T00871085  RH  029%=      5-min Rain = 0
KHO1 200039Z 24004KT 09/M09 A3028 RMK A01 T00861086  RH  029%=      5-min Rain = 0
KHO1 200040Z 24004KT 09/M09 A3028 RMK A01 T00861086  RH  029%=      5-min Rain = 0
KHO1 200041Z 24003KT 09/M09 A3028 RMK A01 T00851086  RH  029%=      5-min Rain = 0
KHO1 200042Z 24003KT 09/M09 A3028 RMK A01 T00851085  RH  029%=      5-min Rain = 0
KHO1 200043Z 24003KT 08/M09 A3028 RMK A01 T00841085  RH  029%=      5-min Rain = 0
KHO1 200044Z 24003KT 08/M09 A3028 RMK A01 T00831085  RH  029%=      5-min Rain = 0
KHO1 200045Z 24002KT 08/M09 A3028 RMK A01 T00821085  RH  030%=      5-min Rain = 0
KHO1 200046Z 24003KT 08/M09 A3028 RMK A01 T00821085  RH  030%=      5-min Rain = 0
KHO1 200047Z 24003KT 08/M09 A3028 RMK A01 T00831085  RH  030%=      5-min Rain = 0
KHO1 200048Z 23003KT 08/M09 A3028 RMK A01 T00831085  RH  030%=      5-min Rain = 0
KHO1 200049Z 22004KT 08/M08 A3028 RMK A01 T00831084  RH  030%=      5-min Rain = 0
KHO1 200050Z 22004KT 08/M08 A3028 RMK A01 T00831083  RH  030%=      5-min Rain = 0
KHO1 200051Z 23003KT 08/M08 A3028 RMK A01 T00831082  RH  030%=      5-min Rain = 0
KHO1 200052Z 23003KT 08/M08 A3028 RMK A01 T00841082  RH  030%=      5-min Rain = 0
KHO1 200053Z 23003KT 08/M08 A3028 RMK A01 T00841082  RH  030%=      5-min Rain = 0
KHO1 200054Z 23003KT 08/M08 A3028 RMK A01 T00831082  RH  030%=      5-min Rain = 0
KHO1 200055Z 23003KT 08/M08 A3028 RMK A01 T00821083  RH  030%=      5-min Rain = 0
KHO1 200056Z 23003KT 08/M08 A3028 RMK A01 T00821084  RH  030%=      5-min Rain = 0
KHO1 200057Z 23003KT 08/M08 A3028 RMK A01 T00811083  RH  030%=      5-min Rain = 0
KHO1 200058Z 23003KT 08/M08 A3028 RMK A01 T00811083  RH  030%=      5-min Rain = 0
KHO1 200059Z 22004KT 08/M08 A3028 RMK A01 T00801083  RH  031%=      5-min Rain = 0
KHO1 200100Z 22004KT 08/M08 A3028 RMK A01 T00791082  RH  031%=      5-min Rain = 0
KHO1 200101Z 22004KT 08/M08 A3028 RMK A01 T00781081  RH  032%=      5-min Rain = 0
KHO1 200102Z 22004KT 08/M08 A3028 RMK A01 T00771081  RH  032%=      5-min Rain = 0
KHO1 200103Z 22004KT 08/M08 A3028 RMK A01 T00771080  RH  032%=      5-min Rain = 0
KHO1 200104Z 21004KT 08/M08 A3028 RMK A01 T00761080  RH  032%=      5-min Rain = 0
KHO1 200105Z 20004KT 07/M08 A3029 RMK A01 T00741080  RH  032%=      5-min Rain = 0
KHO1 200106Z 20004KT 07/M08 A3029 RMK A01 T00741081  RH  032%=      5-min Rain = 0
KHO1 200107Z 20003KT 07/M08 A3028 RMK A01 T00741082  RH  032%=      5-min Rain = 0
KHO1 200108Z 20004KT 07/M08 A3028 RMK A01 T00741082  RH  032%=      5-min Rain = 0
KHO1 200109Z 20004KT 07/M08 A3028 RMK A01 T00731080  RH  033%=      5-min Rain = 0
KHO1 200110Z 20003KT 07/M08 A3028 RMK A01 T00731080  RH  033%=      5-min Rain = 0
KHO1 200111Z 20003KT 07/M08 A3028 RMK A01 T00731081  RH  033%=      5-min Rain = 0
KHO1 200112Z 20003KT 07/M08 A3028 RMK A01 T00731080  RH  033%=      5-min Rain = 0
KHO1 200113Z 20004KT 07/M08 A3028 RMK A01 T00731080  RH  033%=      5-min Rain = 0
KHO1 200114Z 20004KT 07/M08 A3028 RMK A01 T00721080  RH  033%=      5-min Rain = 0
KHO1 200115Z 20004KT 07/M08 A3028 RMK A01 T00721081  RH  033%=      5-min Rain = 0
KHO1 200116Z 20004KT 07/M08 A3028 RMK A01 T00721081  RH  033%=      5-min Rain = 0
KHO1 200117Z 20004KT 07/M08 A3028 RMK A01 T00721081  RH  033%=      5-min Rain = 0
KHO1 200118Z 20004KT 07/M08 A3028 RMK A01 T00711081  RH  033%=      5-min Rain = 0
KHO1 200119Z 20004KT 07/M08 A3028 RMK A01 T00711081  RH  033%=      5-min Rain = 0
KHO1 200120Z 20004KT 07/M08 A3028 RMK A01 T00701081  RH  033%=      5-min Rain = 0
KHO1 200121Z 20003KT 07/M08 A3028 RMK A01 T00691081  RH  033%=      5-min Rain = 0
KHO1 200122Z 20003KT 07/M08 A3028 RMK A01 T00681081  RH  034%=      5-min Rain = 0
KHO1 200123Z 20003KT 07/M08 A3028 RMK A01 T00671081  RH  034%=      5-min Rain = 0
KHO1 200124Z 19003KT 07/M08 A3028 RMK A01 T00661081  RH  034%=      5-min Rain = 0
KHO1 200125Z 19003KT 07/M08 A3028 RMK A01 T00661081  RH  034%=      5-min Rain = 0
KHO1 200126Z 19004KT 07/M08 A3028 RMK A01 T00651081  RH  034%=      5-min Rain = 0
KHO1 200127Z 19004KT 06/M08 A3028 RMK A01 T00641080  RH  035%=      5-min Rain = 0
KHO1 200128Z 19004KT 06/M08 A3028 RMK A01 T00641079  RH  035%=      5-min Rain = 0
KHO1 200129Z 19004KT 06/M08 A3028 RMK A01 T00631079  RH  035%=      5-min Rain = 0
KHO1 200130Z 19004KT 06/M08 A3028 RMK A01 T00631078  RH  036%=      5-min Rain = 0
KHO1 200131Z 19004KT 06/M08 A3028 RMK A01 T00621078  RH  036%=      5-min Rain = 0
KHO1 200132Z 19004KT 06/M08 A3028 RMK A01 T00621077  RH  036%=      5-min Rain = 0
KHO1 200133Z 19004KT 06/M08 A3028 RMK A01 T00621077  RH  036%=      5-min Rain = 0
KHO1 200134Z 19004KT 06/M08 A3028 RMK A01 T00621077  RH  036%=      5-min Rain = 0
KHO1 200135Z 18004KT 06/M08 A3027 RMK A01 T00631077  RH  036%=      5-min Rain = 0
KHO1 200136Z 18004KT 06/M08 A3027 RMK A01 T00641077  RH  036%=      5-min Rain = 0
KHO1 200137Z 18004KT 06/M08 A3027 RMK A01 T00641076  RH  036%=      5-min Rain = 0
KHO1 200138Z 17004KT 06/M08 A3027 RMK A01 T00641075  RH  036%=      5-min Rain = 0
KHO1 200139Z 18004KT 06/M07 A3027 RMK A01 T00631074  RH  037%=      5-min Rain = 0
KHO1 200140Z 18005KT 06/M07 A3027 RMK A01 T00631074  RH  037%=      5-min Rain = 0
KHO1 200141Z 18005KT 06/M07 A3027 RMK A01 T00631074  RH  037%=      5-min Rain = 0
KHO1 200142Z 18005KT 06/M07 A3027 RMK A01 T00631074  RH  037%=      5-min Rain = 0
KHO1 200143Z 18004KT 06/M07 A3027 RMK A01 T00631074  RH  037%=      5-min Rain = 0
KHO1 200144Z 17004KT 06/M07 A3027 RMK A01 T00621074  RH  037%=      5-min Rain = 0
KHO1 200145Z 17004KT 06/M08 A3027 RMK A01 T00621075  RH  037%=      5-min Rain = 0
KHO1 200146Z 17004KT 06/M08 A3027 RMK A01 T00621075  RH  037%=      5-min Rain = 0
KHO1 200147Z 17004KT 06/M08 A3027 RMK A01 T00621075  RH  037%=      5-min Rain = 0
KHO1 200148Z 17004KT 06/M08 A3027 RMK A01 T00621076  RH  036%=      5-min Rain = 0
KHO1 200149Z 17004KT 06/M08 A3027 RMK A01 T00631076  RH  036%=      5-min Rain = 0
KHO1 200150Z 17004KT 06/M08 A3027 RMK A01 T00631076  RH  036%=      5-min Rain = 0
KHO1 200151Z 17004KT 06/M08 A3027 RMK A01 T00631076  RH  036%=      5-min Rain = 0
KHO1 200152Z 17004KT 06/M08 A3027 RMK A01 T00631076  RH  036%=      5-min Rain = 0
KHO1 200153Z 17004KT 06/M08 A3027 RMK A01 T00631076  RH  036%=      5-min Rain = 0
KHO1 200154Z 17004KT 06/M08 A3027 RMK A01 T00621076  RH  036%=      5-min Rain = 0
KHO1 200155Z 17004KT 06/M08 A3027 RMK A01 T00611077  RH  036%=      5-min Rain = 0
KHO1 200156Z 17004KT 06/M08 A3027 RMK A01 T00611077  RH  037%=      5-min Rain = 0
KHO1 200157Z 17004KT 06/M08 A3027 RMK A01 T00611076  RH  037%=      5-min Rain = 0
KHO1 200158Z 17004KT 06/M08 A3027 RMK A01 T00601076  RH  037%=      5-min Rain = 0
KHO1 200159Z 17004KT 06/M08 A3027 RMK A01 T00601076  RH  037%=      5-min Rain = 0
KHO1 200200Z 17004KT 06/M08 A3027 RMK A01 T00601076  RH  037%=      5-min Rain = 0
KHO1 200201Z 17004KT 06/M08 A3027 RMK A01 T00601077  RH  037%=      5-min Rain = 0
KHO1 200202Z 17004KT 06/M08 A3027 RMK A01 T00601077  RH  037%=      5-min Rain = 0
KHO1 200203Z 17003KT 06/M08 A3027 RMK A01 T00601076  RH  037%=      5-min Rain = 0
KHO1 200204Z 17003KT 06/M08 A3027 RMK A01 T00591075  RH  038%=      5-min Rain = 0
KHO1 200205Z 17003KT 06/M08 A3027 RMK A01 T00571075  RH  038%=      5-min Rain = 0
KHO1 200206Z 17003KT 06/M08 A3028 RMK A01 T00571075  RH  038%=      5-min Rain = 0
KHO1 200207Z 17003KT 06/M08 A3028 RMK A01 T00561076  RH  038%=      5-min Rain = 0
KHO1 200208Z 17002KT 06/M08 A3028 RMK A01 T00561076  RH  038%=      5-min Rain = 0
KHO1 200209Z 17002KT 06/M08 A3028 RMK A01 T00561076  RH  038%=      5-min Rain = 0
KHO1 200210Z 17002KT 06/M08 A3028 RMK A01 T00551077  RH  038%=      5-min Rain = 0
KHO1 200211Z 17002KT 06/M08 A3028 RMK A01 T00551076  RH  038%=      5-min Rain = 0
KHO1 200212Z 16002KT 06/M08 A3028 RMK A01 T00551075  RH  039%=      5-min Rain = 0
KHO1 200213Z 16001KT 05/M08 A3028 RMK A01 T00541076  RH  038%=      5-min Rain = 0
KHO1 200214Z 16002KT 05/M08 A3028 RMK A01 T00541077  RH  038%=      5-min Rain = 0
KHO1 200215Z 16002KT 05/M08 A3028 RMK A01 T00541077  RH  038%=      5-min Rain = 0
KHO1 200216Z 16002KT 05/M08 A3028 RMK A01 T00531077  RH  038%=      5-min Rain = 0
KHO1 200217Z 16002KT 05/M08 A3028 RMK A01 T00531077  RH  038%=      5-min Rain = 0
KHO1 200218Z 16002KT 05/M08 A3028 RMK A01 T00531077  RH  039%=      5-min Rain = 0
KHO1 200219Z 16001KT 05/M08 A3028 RMK A01 T00521076  RH  039%=      5-min Rain = 0
KHO1 200220Z 00000KT 05/M08 A3029 RMK A01 T00521076  RH  039%=      5-min Rain = 0
KHO1 200221Z 00000KT 05/M08 A3029 RMK A01 T00531077  RH  039%=      5-min Rain = 0
KHO1 200222Z 00000KT 05/M08 A3029 RMK A01 T00541077  RH  038%=      5-min Rain = 0
KHO1 200223Z 00000KT 06/M08 A303 RMK A01 T00551076  RH  038%=      5-min Rain = 0
KHO1 200224Z 00000KT 06/M07 A303 RMK A01 T00571069  RH  040%=      5-min Rain = 0
KHO1 200225Z 28001KT 06/M07 A303 RMK A01 T00551068  RH  041%=      5-min Rain = 0
KHO1 200226Z 27002KT 05/M07 A3031 RMK A01 T00521070  RH  041%=      5-min Rain = 0
KHO1 200227Z 26002KT 05/M07 A3031 RMK A01 T00501071  RH  041%=      5-min Rain = 0
KHO1 200228Z 26002KT 05/M07 A3031 RMK A01 T00481071  RH  042%=      5-min Rain = 0
KHO1 200229Z 27002KT 05/M07 A3031 RMK A01 T00471070  RH  042%=      5-min Rain = 0
KHO1 200230Z 28003KT 05/M07 A3031 RMK A01 T00451071  RH  043%=      5-min Rain = 0
KHO1 200231Z 29002KT 05/M07 A3031 RMK A01 T00451071  RH  043%=      5-min Rain = 0
KHO1 200232Z 29001KT 04/M07 A3031 RMK A01 T00441071  RH  043%=      5-min Rain = 0
KHO1 200233Z 29001KT 04/M07 A3031 RMK A01 T00431069  RH  044%=      5-min Rain = 0
KHO1 200234Z 30002KT 04/M07 A3031 RMK A01 T00431070  RH  044%=      5-min Rain = 0
KHO1 200235Z 31004KT 04/M07 A3032 RMK A01 T00431072  RH  043%=      5-min Rain = 0
KHO1 200236Z 30005KT 04/M07 A3032 RMK A01 T00431070  RH  043%=      5-min Rain = 0
KHO1 200237Z 29004KT 04/M07 A3032 RMK A01 T00431072  RH  043%=      5-min Rain = 0
KHO1 200238Z 28003KT 04/M08 A3031 RMK A01 T00431075  RH  042%=      5-min Rain = 0
KHO1 200239Z 27003KT 04/M08 A3031 RMK A01 T00431075  RH  042%=      5-min Rain = 0
KHO1 200240Z 27002KT 04/M07 A3031 RMK A01 T00431074  RH  042%=      5-min Rain = 0
KHO1 200241Z 28002KT 04/M07 A3032 RMK A01 T00421074  RH  043%=      5-min Rain = 0
KHO1 200242Z 29003KT 04/M08 A3032 RMK A01 T00421075  RH  042%=      5-min Rain = 0
KHO1 200243Z 28002KT 04/M08 A3032 RMK A01 T00421075  RH  042%=      5-min Rain = 0
KHO1 200244Z 28002KT 04/M08 A3032 RMK A01 T00421076  RH  042%=      5-min Rain = 0
KHO1 200245Z 27003KT 04/M08 A3032 RMK A01 T00431076  RH  042%=      5-min Rain = 0
KHO1 200246Z 27002KT 04/M08 A3032 RMK A01 T00441077  RH  041%=      5-min Rain = 0
KHO1 200247Z 26002KT 05/M08 A3032 RMK A01 T00451077  RH  041%=      5-min Rain = 0
KHO1 200248Z 24002KT 05/M08 A3032 RMK A01 T00451075  RH  041%=      5-min Rain = 0
KHO1 200249Z 23001KT 04/M08 A3031 RMK A01 T00431075  RH  042%=      5-min Rain = 0
KHO1 200250Z 23001KT 04/M08 A3032 RMK A01 T00421075  RH  042%=      5-min Rain = 0
KHO1 200251Z 23001KT 04/M08 A3032 RMK A01 T00421075  RH  042%=      5-min Rain = 0
KHO1 200252Z 23000KT 04/M07 A3031 RMK A01 T00411074  RH  043%=      5-min Rain = 0
KHO1 200253Z 23001KT 04/M07 A3031 RMK A01 T00391074  RH  043%=      5-min Rain = 0
KHO1 200254Z 23000KT 04/M07 A3031 RMK A01 T00391074  RH  043%=      5-min Rain = 0
KHO1 200255Z 00000KT 04/M07 A3031 RMK A01 T00381074  RH  044%=      5-min Rain = 0
KHO1 200256Z 27001KT 04/M07 A3031 RMK A01 T00381073  RH  044%=      5-min Rain = 0
KHO1 200257Z 26003KT 04/M07 A3031 RMK A01 T00371073  RH  045%=      5-min Rain = 0
KHO1 200258Z 25003KT 04/M07 A3031 RMK A01 T00351073  RH  045%=      5-min Rain = 0
KHO1 200259Z 24003KT 03/M07 A3031 RMK A01 T00341074  RH  045%=      5-min Rain = 0
KHO1 200300Z 24003KT 04/M07 A3031 RMK A01 T00351073  RH  045%=      5-min Rain = 0
KHO1 200301Z 23004KT 04/M07 A303 RMK A01 T00371072  RH  045%=      5-min Rain = 0
KHO1 200302Z 22005KT 04/M07 A303 RMK A01 T00381073  RH  044%=      5-min Rain = 0
KHO1 200303Z 21004KT 04/M07 A303 RMK A01 T00381073  RH  044%=      5-min Rain = 0
KHO1 200304Z 21004KT 04/M08 A303 RMK A01 T00381076  RH  043%=      5-min Rain = 0
KHO1 200305Z 21003KT 04/M08 A303 RMK A01 T00391077  RH  043%=      5-min Rain = 0
KHO1 200306Z 22003KT 04/M08 A303 RMK A01 T00401077  RH  042%=      5-min Rain = 0
KHO1 200307Z 22002KT 04/M08 A303 RMK A01 T00381077  RH  043%=      5-min Rain = 0
KHO1 200308Z 22001KT 04/M08 A303 RMK A01 T00381078  RH  043%=      5-min Rain = 0
KHO1 200309Z 22000KT 04/M08 A3031 RMK A01 T00371077  RH  043%=      5-min Rain = 0
KHO1 200310Z 00000KT 04/M08 A3031 RMK A01 T00361077  RH  043%=      5-min Rain = 0
KHO1 200311Z 00000KT 04/M08 A3031 RMK A01 T00351077  RH  044%=      5-min Rain = 0
KHO1 200312Z 00000KT 04/M08 A3031 RMK A01 T00351076  RH  044%=      5-min Rain = 0
KHO1 200313Z 00000KT 03/M08 A303 RMK A01 T00341076  RH  044%=      5-min Rain = 0
KHO1 200314Z 00000KT 03/M07 A303 RMK A01 T00341074  RH  045%=      5-min Rain = 0
KHO1 200315Z 17000KT 04/M07 A303 RMK A01 T00361073  RH  045%=      5-min Rain = 0
KHO1 200316Z 17002KT 04/M07 A3029 RMK A01 T00351073  RH  045%=      5-min Rain = 0
KHO1 200317Z 17003KT 04/M07 A3029 RMK A01 T00351074  RH  045%=      5-min Rain = 0
KHO1 200318Z 18004KT 03/M07 A3029 RMK A01 T00341073  RH  045%=      5-min Rain = 0
KHO1 200319Z 18005KT 04/M07 A3029 RMK A01 T00351073  RH  045%=      5-min Rain = 0
KHO1 200320Z 18005KT 04/M07 A3029 RMK A01 T00361073  RH  045%=      5-min Rain = 0
KHO1 200321Z 18004KT 04/M07 A3029 RMK A01 T00361072  RH  045%=      5-min Rain = 0
KHO1 200322Z 18003KT 04/M07 A3029 RMK A01 T00371072  RH  045%=      5-min Rain = 0
KHO1 200323Z 18003KT 04/M07 A3029 RMK A01 T00381071  RH  045%=      5-min Rain = 0
KHO1 200324Z 17003KT 04/M07 A3029 RMK A01 T00391071  RH  044%=      5-min Rain = 0
KHO1 200325Z 17002KT 04/M07 A3029 RMK A01 T00401071  RH  044%=      5-min Rain = 0
KHO1 200326Z 17002KT 04/M07 A3029 RMK A01 T00401073  RH  044%=      5-min Rain = 0
KHO1 200327Z 17002KT 04/M08 A3029 RMK A01 T00411075  RH  043%=      5-min Rain = 0
KHO1 200328Z 17002KT 04/M08 A3029 RMK A01 T00421075  RH  042%=      5-min Rain = 0
KHO1 200329Z 17003KT 04/M08 A3029 RMK A01 T00421076  RH  042%=      5-min Rain = 0
KHO1 200330Z 17003KT 04/M08 A3028 RMK A01 T00421075  RH  042%=      5-min Rain = 0
KHO1 200331Z 17003KT 04/M08 A3028 RMK A01 T00411075  RH  042%=      5-min Rain = 0
KHO1 200332Z 17003KT 04/M08 A3029 RMK A01 T00411075  RH  043%=      5-min Rain = 0
KHO1 200333Z 16003KT 04/M07 A3029 RMK A01 T00411074  RH  043%=      5-min Rain = 0
KHO1 200334Z 16004KT 04/M07 A3029 RMK A01 T00401074  RH  043%=      5-min Rain = 0
KHO1 200335Z 16004KT 04/M07 A3028 RMK A01 T00381073  RH  044%=      5-min Rain = 0
KHO1 200336Z 16004KT 04/M07 A3028 RMK A01 T00361071  RH  045%=      5-min Rain = 0
KHO1 200337Z 16003KT 04/M07 A3029 RMK A01 T00351071  RH  046%=      5-min Rain = 0
KHO1 200338Z 15003KT 04/M07 A3029 RMK A01 T00351072  RH  045%=      5-min Rain = 0
KHO1 200339Z 15003KT 04/M07 A3029 RMK A01 T00351071  RH  046%=      5-min Rain = 0
KHO1 200340Z 16004KT 03/M07 A3029 RMK A01 T00341070  RH  046%=      5-min Rain = 0
KHO1 200341Z 17004KT 03/M07 A3029 RMK A01 T00341071  RH  046%=      5-min Rain = 0
KHO1 200342Z 17003KT 03/M07 A3029 RMK A01 T00341071  RH  046%=      5-min Rain = 0
KHO1 200343Z 17003KT 03/M07 A3029 RMK A01 T00341070  RH  046%=      5-min Rain = 0
KHO1 200344Z 17003KT 03/M07 A3029 RMK A01 T00341071  RH  046%=      5-min Rain = 0
KHO1 200345Z 18003KT 03/M07 A3029 RMK A01 T00341072  RH  046%=      5-min Rain = 0
KHO1 200346Z 18004KT 03/M07 A3029 RMK A01 T00331072  RH  046%=      5-min Rain = 0
KHO1 200347Z 18004KT 03/M07 A3029 RMK A01 T00331072  RH  046%=      5-min Rain = 0
KHO1 200348Z 18004KT 03/M07 A3028 RMK A01 T00321072  RH  046%=      5-min Rain = 0
KHO1 200349Z 17004KT 03/M07 A3028 RMK A01 T00311072  RH  047%=      5-min Rain = 0
KHO1 200350Z 17004KT 03/M07 A3028 RMK A01 T00311071  RH  047%=      5-min Rain = 0
KHO1 200351Z 17004KT 03/M07 A3028 RMK A01 T00311071  RH  047%=      5-min Rain = 0
KHO1 200352Z 18004KT 03/M07 A3028 RMK A01 T00301070  RH  048%=      5-min Rain = 0
KHO1 200353Z 18004KT 03/M07 A3029 RMK A01 T00301069  RH  048%=      5-min Rain = 0
KHO1 200354Z 18004KT 03/M07 A3029 RMK A01 T00291068  RH  049%=      5-min Rain = 0
KHO1 200355Z 17002KT 03/M07 A3029 RMK A01 T00281068  RH  049%=      5-min Rain = 0
KHO1 200356Z 17002KT 03/M07 A3029 RMK A01 T00281069  RH  049%=      5-min Rain = 0
KHO1 200357Z 17002KT 03/M07 A303 RMK A01 T00281069  RH  049%=      5-min Rain = 0
KHO1 200358Z 17002KT 03/M07 A303 RMK A01 T00281068  RH  049%=      5-min Rain = 0
KHO1 200359Z 18003KT 03/M07 A303 RMK A01 T00281068  RH  049%=      5-min Rain = 0
KHO1 200400Z 18003KT 03/M07 A303 RMK A01 T00281068  RH  049%=      5-min Rain = 0
KHO1 200401Z 17003KT 03/M07 A303 RMK A01 T00281068  RH  049%=      5-min Rain = 0
KHO1 200402Z 18002KT 03/M07 A303 RMK A01 T00281069  RH  049%=      5-min Rain = 0
KHO1 200403Z 18002KT 03/M07 A303 RMK A01 T00281069  RH  049%=      5-min Rain = 0
KHO1 200404Z 18002KT 03/M07 A303 RMK A01 T00281070  RH  049%=      5-min Rain = 0
KHO1 200405Z 18003KT 03/M07 A303 RMK A01 T00281070  RH  048%=      5-min Rain = 0
KHO1 200406Z 19003KT 03/M07 A303 RMK A01 T00281070  RH  048%=      5-min Rain = 0
KHO1 200407Z 19003KT 03/M07 A303 RMK A01 T00291070  RH  048%=      5-min Rain = 0
KHO1 200408Z 20002KT 03/M07 A303 RMK A01 T00291069  RH  048%=      5-min Rain = 0
KHO1 200409Z 20003KT 03/M07 A303 RMK A01 T00291070  RH  048%=      5-min Rain = 0
KHO1 200410Z 20003KT 03/M07 A303 RMK A01 T00301071  RH  047%=      5-min Rain = 0
KHO1 200411Z 20002KT 03/M07 A303 RMK A01 T00301070  RH  047%=      5-min Rain = 0
KHO1 200412Z 20002KT 03/M07 A303 RMK A01 T00311071  RH  047%=      5-min Rain = 0
KHO1 200413Z 20001KT 03/M07 A303 RMK A01 T00321072  RH  046%=      5-min Rain = 0
KHO1 200414Z 20001KT 03/M07 A303 RMK A01 T00321073  RH  046%=      5-min Rain = 0
KHO1 200415Z 20001KT 03/M07 A303 RMK A01 T00331073  RH  046%=      5-min Rain = 0
KHO1 200416Z 20001KT 03/M07 A303 RMK A01 T00331073  RH  046%=      5-min Rain = 0
KHO1 200417Z 20001KT 03/M08 A303 RMK A01 T00331075  RH  045%=      5-min Rain = 0
KHO1 200418Z 19001KT 03/M08 A303 RMK A01 T00331076  RH  045%=      5-min Rain = 0
KHO1 200419Z 19002KT 03/M08 A303 RMK A01 T00321076  RH  045%=      5-min Rain = 0
KHO1 200420Z 19002KT 03/M08 A303 RMK A01 T00321075  RH  045%=      5-min Rain = 0
KHO1 200421Z 19002KT 03/M08 A303 RMK A01 T00321075  RH  045%=      5-min Rain = 0
KHO1 200422Z 20002KT 03/M07 A303 RMK A01 T00321074  RH  046%=      5-min Rain = 0
KHO1 200423Z 20003KT 03/M07 A303 RMK A01 T00321072  RH  046%=      5-min Rain = 0
KHO1 200424Z 20002KT 03/M07 A303 RMK A01 T00321073  RH  046%=      5-min Rain = 0
KHO1 200425Z 20002KT 03/M07 A303 RMK A01 T00311072  RH  047%=      5-min Rain = 0
KHO1 200426Z 20002KT 03/M07 A3029 RMK A01 T00311073  RH  046%=      5-min Rain = 0
KHO1 200427Z 20001KT 03/M07 A3029 RMK A01 T00311073  RH  047%=      5-min Rain = 0
KHO1 200428Z 20002KT 03/M07 A3029 RMK A01 T00301072  RH  047%=      5-min Rain = 0
KHO1 200429Z 21002KT 03/M07 A3029 RMK A01 T00291071  RH  048%=      5-min Rain = 0
KHO1 200430Z 21002KT 03/M07 A3029 RMK A01 T00281068  RH  049%=      5-min Rain = 0
KHO1 200431Z 22003KT 03/M07 A303 RMK A01 T00271066  RH  050%=      5-min Rain = 0
KHO1 200432Z 22003KT 03/M06 A303 RMK A01 T00271062  RH  052%=      5-min Rain = 0
KHO1 200433Z 22004KT 03/M07 A303 RMK A01 T00271065  RH  051%=      5-min Rain = 0
KHO1 200434Z 22004KT 03/M07 A303 RMK A01 T00271067  RH  050%=      5-min Rain = 0
KHO1 200435Z 21004KT 03/M07 A303 RMK A01 T00261068  RH  050%=      5-min Rain = 0
KHO1 200436Z 21004KT 03/M07 A303 RMK A01 T00251068  RH  050%=      5-min Rain = 0
KHO1 200437Z 21004KT 02/M07 A303 RMK A01 T00231068  RH  051%=      5-min Rain = 0
KHO1 200438Z 21004KT 02/M07 A3029 RMK A01 T00211068  RH  052%=      5-min Rain = 0
KHO1 200439Z 21004KT 02/M07 A303 RMK A01 T00201068  RH  052%=      5-min Rain = 0
KHO1 200440Z 20004KT 02/M07 A303 RMK A01 T00191068  RH  053%=      5-min Rain = 0
KHO1 200441Z 20004KT 02/M07 A303 RMK A01 T00181068  RH  053%=      5-min Rain = 0
KHO1 200442Z 20004KT 02/M07 A303 RMK A01 T00171068  RH  053%=      5-min Rain = 0
KHO1 200443Z 21003KT 02/M07 A303 RMK A01 T00161068  RH  054%=      5-min Rain = 0
KHO1 200444Z 20003KT 02/M07 A303 RMK A01 T00151067  RH  054%=      5-min Rain = 0
KHO1 200445Z 21003KT 01/M07 A303 RMK A01 T00141067  RH  055%=      5-min Rain = 0
KHO1 200446Z 21004KT 01/M07 A303 RMK A01 T00141067  RH  055%=      5-min Rain = 0
KHO1 200447Z 21004KT 01/M07 A303 RMK A01 T00131066  RH  056%=      5-min Rain = 0
KHO1 200448Z 21004KT 01/M07 A303 RMK A01 T00121066  RH  056%=      5-min Rain = 0
KHO1 200449Z 22004KT 01/M07 A303 RMK A01 T00121066  RH  056%=      5-min Rain = 0
KHO1 200450Z 22004KT 01/M07 A303 RMK A01 T00121066  RH  056%=      5-min Rain = 0
KHO1 200451Z 22004KT 01/M07 A303 RMK A01 T00111066  RH  056%=      5-min Rain = 0
KHO1 200452Z 22005KT 01/M07 A303 RMK A01 T00111067  RH  056%=      5-min Rain = 0
KHO1 200453Z 22005KT 01/M07 A303 RMK A01 T00111067  RH  056%=      5-min Rain = 0
KHO1 200454Z 22005KT 01/M07 A303 RMK A01 T00111068  RH  056%=      5-min Rain = 0
KHO1 200455Z 22005KT 01/M07 A303 RMK A01 T00111068  RH  056%=      5-min Rain = 0
KHO1 200456Z 22005KT 01/M07 A303 RMK A01 T00121069  RH  055%=      5-min Rain = 0
KHO1 200457Z 22005KT 01/M07 A303 RMK A01 T00141070  RH  054%=      5-min Rain = 0
KHO1 200458Z 21005KT 02/M07 A303 RMK A01 T00151070  RH  053%=      5-min Rain = 0
KHO1 200459Z 21005KT 02/M07 A3029 RMK A01 T00161071  RH  052%=      5-min Rain = 0
KHO1 200500Z 21004KT 02/M07 A3029 RMK A01 T00171072  RH  052%=      5-min Rain = 0
KHO1 200501Z 21004KT 02/M07 A3029 RMK A01 T00181072  RH  051%=      5-min Rain = 0
KHO1 200502Z 21004KT 02/M07 A303 RMK A01 T00181073  RH  051%=      5-min Rain = 0
KHO1 200503Z 21004KT 02/M07 A303 RMK A01 T00191073  RH  051%=      5-min Rain = 0
KHO1 200504Z 21004KT 02/M07 A303 RMK A01 T00191073  RH  050%=      5-min Rain = 0
KHO1 200505Z 21004KT 02/M07 A303 RMK A01 T00201073  RH  050%=      5-min Rain = 0
KHO1 200506Z 21004KT 02/M07 A303 RMK A01 T00211074  RH  049%=      5-min Rain = 0
KHO1 200507Z 22003KT 02/M08 A303 RMK A01 T00231075  RH  048%=      5-min Rain = 0
KHO1 200508Z 22003KT 02/M08 A303 RMK A01 T00241075  RH  048%=      5-min Rain = 0
KHO1 200509Z 22002KT 02/M08 A303 RMK A01 T00241076  RH  048%=      5-min Rain = 0
KHO1 200510Z 22003KT 03/M08 A303 RMK A01 T00251077  RH  047%=      5-min Rain = 0
KHO1 200511Z 22002KT 03/M08 A303 RMK A01 T00261077  RH  047%=      5-min Rain = 0
KHO1 200512Z 21002KT 03/M08 A303 RMK A01 T00271077  RH  046%=      5-min Rain = 0
KHO1 200513Z 21002KT 03/M08 A303 RMK A01 T00271077  RH  046%=      5-min Rain = 0
KHO1 200514Z 21002KT 03/M08 A303 RMK A01 T00281077  RH  046%=      5-min Rain = 0
KHO1 200515Z 21002KT 03/M08 A303 RMK A01 T00271077  RH  046%=      5-min Rain = 0
KHO1 200516Z 21002KT 03/M08 A303 RMK A01 T00271077  RH  046%=      5-min Rain = 0
KHO1 200517Z 21002KT 03/M08 A303 RMK A01 T00261077  RH  047%=      5-min Rain = 0
KHO1 200518Z 20002KT 03/M08 A303 RMK A01 T00251076  RH  047%=      5-min Rain = 0
KHO1 200519Z 20002KT 02/M08 A303 RMK A01 T00241076  RH  048%=      5-min Rain = 0
KHO1 200520Z 20002KT 02/M08 A303 RMK A01 T00231076  RH  048%=      5-min Rain = 0
KHO1 200521Z 20002KT 02/M08 A303 RMK A01 T00221076  RH  048%=      5-min Rain = 0
KHO1 200522Z 20003KT 02/M08 A303 RMK A01 T00211075  RH  049%=      5-min Rain = 0
KHO1 200523Z 20003KT 02/M08 A303 RMK A01 T00211076  RH  049%=      5-min Rain = 0
KHO1 200524Z 20003KT 02/M08 A303 RMK A01 T00211076  RH  049%=      5-min Rain = 0
KHO1 200525Z 21003KT 02/M08 A303 RMK A01 T00201076  RH  049%=      5-min Rain = 0
KHO1 200526Z 21003KT 02/M08 A303 RMK A01 T00201075  RH  049%=      5-min Rain = 0
KHO1 200527Z 20003KT 02/M08 A303 RMK A01 T00201075  RH  050%=      5-min Rain = 0
KHO1 200528Z 20004KT 02/M08 A303 RMK A01 T00191075  RH  050%=      5-min Rain = 0
KHO1 200529Z 20004KT 02/M08 A303 RMK A01 T00191075  RH  050%=      5-min Rain = 0
KHO1 200530Z 20004KT 02/M07 A303 RMK A01 T00191074  RH  050%=      5-min Rain = 0
KHO1 200531Z 20005KT 02/M07 A303 RMK A01 T00191074  RH  050%=      5-min Rain = 0
KHO1 200532Z 20004KT 02/M07 A303 RMK A01 T00191074  RH  050%=      5-min Rain = 0
KHO1 200533Z 19005KT 02/M07 A303 RMK A01 T00191074  RH  050%=      5-min Rain = 0
KHO1 200534Z 19005KT 02/M07 A303 RMK A01 T00181074  RH  050%=      5-min Rain = 0
KHO1 200535Z 19005KT 02/M07 A303 RMK A01 T00181074  RH  050%=      5-min Rain = 0
KHO1 200536Z 19005KT 02/M07 A303 RMK A01 T00181074  RH  051%=      5-min Rain = 0
KHO1 200537Z 19005KT 02/M07 A303 RMK A01 T00181074  RH  051%=      5-min Rain = 0
KHO1 200538Z 19005KT 02/M07 A303 RMK A01 T00171074  RH  051%=      5-min Rain = 0
KHO1 200539Z 19005KT 02/M07 A303 RMK A01 T00161073  RH  051%=      5-min Rain = 0
KHO1 200540Z 20005KT 02/M07 A303 RMK A01 T00151073  RH  052%=      5-min Rain = 0
KHO1 200541Z 20006KT 02/M07 A303 RMK A01 T00151073  RH  052%=      5-min Rain = 0
KHO1 200542Z 20005KT 01/M07 A303 RMK A01 T00141073  RH  052%=      5-min Rain = 0
KHO1 200543Z 20005KT 01/M07 A303 RMK A01 T00131073  RH  053%=      5-min Rain = 0
KHO1 200544Z 20005KT 01/M07 A303 RMK A01 T00121073  RH  053%=      5-min Rain = 0
KHO1 200545Z 20005KT 01/M07 A303 RMK A01 T00111072  RH  054%=      5-min Rain = 0
KHO1 200546Z 20005KT 01/M07 A303 RMK A01 T00101072  RH  054%=      5-min Rain = 0
KHO1 200547Z 20005KT 01/M07 A303 RMK A01 T00101072  RH  054%=      5-min Rain = 0
KHO1 200548Z 20005KT 01/M07 A303 RMK A01 T00101072  RH  055%=      5-min Rain = 0
KHO1 200549Z 20005KT 01/M07 A303 RMK A01 T00101071  RH  054%=      5-min Rain = 0
KHO1 200550Z 20006KT 01/M07 A303 RMK A01 T00121071  RH  054%=      5-min Rain = 0
KHO1 200551Z 20005KT 01/M07 A303 RMK A01 T00131071  RH  054%=      5-min Rain = 0
KHO1 200552Z 19005KT 01/M07 A303 RMK A01 T00141071  RH  053%=      5-min Rain = 0
KHO1 200553Z 19005KT 02/M07 A303 RMK A01 T00151071  RH  053%=      5-min Rain = 0
KHO1 200554Z 19006KT 02/M07 A303 RMK A01 T00161071  RH  052%=      5-min Rain = 0
KHO1 200555Z 19005KT 02/M07 A303 RMK A01 T00161071  RH  052%=      5-min Rain = 0
KHO1 200556Z 19005KT 02/M07 A303 RMK A01 T00151072  RH  052%=      5-min Rain = 0
KHO1 200557Z 19005KT 02/M07 A303 RMK A01 T00151072  RH  052%=      5-min Rain = 0
KHO1 200558Z 19005KT 02/M07 A303 RMK A01 T00151072  RH  052%=      5-min Rain = 0
KHO1 200559Z 19005KT 02/M07 A303 RMK A01 T00161072  RH  052%=      5-min Rain = 0

Page generated in 0.1654 seconds.